Time,TemperatureF,DewpointF,PressureIn,WindDirection,WindDirectionDegrees,WindSpeedMPH,WindSpeedGustMPH,Humidity,HourlyPrecipIn,Conditions,Clouds,dailyrainin,SoftwareType,DateUTC
2014-09-16 00:00:00,44.0,42.4,30.18,West,272,0.0,0.0,94,0.00,CLR,,0.00,WeatherDisplay:10.37,2014-09-16 05:00:00,
2014-09-16 00:01:00,43.9,42.3,30.18,West,272,0.0,0.0,94,0.00,CLR,,0.00,WeatherDisplay:10.37,2014-09-16 05:01:00,
2014-09-16 00:05:00,43.8,42.2,30.18,West,272,0.0,0.0,94,0.00,CLR,,0.00,WeatherDisplay:10.37,2014-09-16 05:05:00,
2014-09-16 00:06:00,43.6,42.0,30.18,West,272,0.0,0.0,94,0.00,CLR,,0.00,WeatherDisplay:10.37,2014-09-16 05:06:00,
2014-09-16 00:10:00,43.5,41.9,30.18,West,272,0.0,0.0,94,0.00,CLR,,0.00,WeatherDisplay:10.37,2014-09-16 05:10:00,
2014-09-16 00:11:00,43.4,41.8,30.18,West,272,0.0,0.0,94,0.00,CLR,,0.00,WeatherDisplay:10.37,2014-09-16 05:11:00,
2014-09-16 00:15:00,43.1,41.5,30.18,West,272,0.0,0.0,94,0.00,CLR,,0.00,WeatherDisplay:10.37,2014-09-16 05:15:00,
2014-09-16 00:17:00,43.0,41.4,30.18,West,272,0.0,0.0,94,0.00,CLR,,0.00,WeatherDisplay:10.37,2014-09-16 05:17:00,
2014-09-16 00:20:00,42.8,41.2,30.18,West,272,0.0,0.0,94,0.00,CLR,,0.00,WeatherDisplay:10.37,2014-09-16 05:20:00,
2014-09-16 00:22:00,42.7,41.1,30.18,West,272,0.0,0.0,94,0.00,CLR,,0.00,WeatherDisplay:10.37,2014-09-16 05:22:00,
2014-09-16 00:25:00,42.5,40.9,30.18,West,272,0.0,0.0,94,0.00,CLR,,0.00,WeatherDisplay:10.37,2014-09-16 05:25:00,
2014-09-16 00:27:00,42.5,40.9,30.17,West,272,0.0,0.0,94,0.00,CLR,,0.00,WeatherDisplay:10.37,2014-09-16 05:27:00,
2014-09-16 00:31:00,42.3,40.7,30.17,West,274,0.0,0.0,94,0.00,CLR,,0.00,WeatherDisplay:10.37,2014-09-16 05:31:00,
2014-09-16 00:32:00,42.3,40.7,30.18,West,274,0.0,0.0,94,0.00,CLR,,0.00,WeatherDisplay:10.37,2014-09-16 05:32:00,
2014-09-16 00:36:00,42.2,40.6,30.18,West,274,0.0,0.0,94,0.00,CLR,,0.00,WeatherDisplay:10.37,2014-09-16 05:36:00,
2014-09-16 00:37:00,42.1,40.5,30.18,West,274,0.0,0.0,94,0.00,CLR,,0.00,WeatherDisplay:10.37,2014-09-16 05:37:00,
2014-09-16 00:41:00,41.9,40.3,30.18,West,274,0.0,0.0,94,0.00,CLR,,0.00,WeatherDisplay:10.37,2014-09-16 05:41:00,
2014-09-16 00:43:00,41.9,40.3,30.18,West,274,0.0,0.0,94,0.00,CLR,,0.00,WeatherDisplay:10.37,2014-09-16 05:43:00,
2014-09-16 00:46:00,41.7,40.1,30.18,West,274,0.0,0.0,94,0.00,CLR,,0.00,WeatherDisplay:10.37,2014-09-16 05:46:00,
2014-09-16 00:48:00,41.6,40.0,30.18,West,274,0.0,0.0,94,0.00,CLR,,0.00,WeatherDisplay:10.37,2014-09-16 05:48:00,
2014-09-16 00:51:00,41.4,39.8,30.18,West,274,0.0,0.0,94,0.00,CLR,,0.00,WeatherDisplay:10.37,2014-09-16 05:51:00,
2014-09-16 00:53:00,41.4,39.8,30.18,West,274,0.0,0.0,94,0.00,CLR,,0.00,WeatherDisplay:10.37,2014-09-16 05:53:00,
2014-09-16 00:56:00,41.2,39.6,30.18,West,274,0.0,0.0,94,0.00,CLR,,0.00,WeatherDisplay:10.37,2014-09-16 05:56:00,
2014-09-16 00:58:00,41.2,39.6,30.18,West,274,0.0,0.0,94,0.00,CLR,,0.00,WeatherDisplay:10.37,2014-09-16 05:58:00,
2014-09-16 01:01:00,41.1,39.8,30.19,West,274,0.0,0.0,95,0.00,CLR,,0.00,WeatherDisplay:10.37,2014-09-16 06:01:00,
2014-09-16 01:03:00,41.0,39.7,30.19,West,274,0.0,0.0,95,0.00,CLR,,0.00,WeatherDisplay:10.37,2014-09-16 06:03:00,
2014-09-16 01:06:00,41.0,39.7,30.19,West,274,0.0,0.0,95,0.00,CLR,,0.00,WeatherDisplay:10.37,2014-09-16 06:06:00,
2014-09-16 01:08:00,41.0,39.7,30.19,West,274,0.0,0.0,95,0.00,CLR,,0.00,WeatherDisplay:10.37,2014-09-16 06:08:00,
2014-09-16 01:11:00,41.1,39.8,30.19,West,274,0.0,0.0,95,0.00,CLR,,0.00,WeatherDisplay:10.37,2014-09-16 06:11:00,
2014-09-16 01:13:00,41.1,39.8,30.19,West,274,0.0,0.0,95,0.00,CLR,,0.00,WeatherDisplay:10.37,2014-09-16 06:13:00,
2014-09-16 01:16:00,41.1,39.8,30.19,WSW,248,0.3,1.7,95,0.00,CLR,,0.00,WeatherDisplay:10.37,2014-09-16 06:16:00,
2014-09-16 01:18:00,41.1,39.8,30.19,West,267,0.0,1.2,95,0.00,CLR,,0.00,WeatherDisplay:10.37,2014-09-16 06:18:00,
2014-09-16 01:21:00,41.1,39.8,30.19,West,260,0.4,2.3,95,0.00,CLR,,0.00,WeatherDisplay:10.37,2014-09-16 06:21:00,
2014-09-16 01:23:00,41.1,39.8,30.19,West,260,0.0,0.0,95,0.00,CLR,,0.00,WeatherDisplay:10.37,2014-09-16 06:23:00,
2014-09-16 01:25:00,41.2,39.9,30.19,West,260,0.0,0.0,95,0.00,CLR,,0.00,WeatherDisplay:10.37,2014-09-16 06:25:00,
2014-09-16 01:26:00,41.2,39.9,30.19,West,260,0.0,0.0,95,0.00,CLR,,0.00,WeatherDisplay:10.37,2014-09-16 06:26:00,
2014-09-16 01:27:00,41.2,39.9,30.19,West,260,0.0,0.0,95,0.00,CLR,,0.00,WeatherDisplay:10.37,2014-09-16 06:27:00,
2014-09-16 01:30:00,41.3,40.0,30.19,West,260,0.0,0.0,95,0.00,CLR,,0.00,WeatherDisplay:10.37,2014-09-16 06:30:00,
2014-09-16 01:31:00,41.4,40.1,30.19,West,260,0.0,0.0,95,0.00,CLR,,0.00,WeatherDisplay:10.37,2014-09-16 06:31:00,
2014-09-16 01:32:00,41.3,40.0,30.19,West,260,0.0,0.0,95,0.00,CLR,,0.00,WeatherDisplay:10.37,2014-09-16 06:32:00,
2014-09-16 01:35:00,41.3,40.0,30.19,West,260,0.0,0.0,95,0.00,CLR,,0.00,WeatherDisplay:10.37,2014-09-16 06:35:00,
2014-09-16 01:37:00,41.4,40.1,30.19,West,260,0.0,0.0,95,0.00,CLR,,0.00,WeatherDisplay:10.37,2014-09-16 06:37:00,
2014-09-16 01:40:00,41.4,40.1,30.19,West,260,0.0,0.0,95,0.00,CLR,,0.00,WeatherDisplay:10.37,2014-09-16 06:40:00,
2014-09-16 01:42:00,41.4,40.1,30.19,West,260,0.0,0.0,95,0.00,CLR,,0.00,WeatherDisplay:10.37,2014-09-16 06:42:00,
2014-09-16 01:46:00,41.3,40.0,30.19,SW,230,0.0,0.0,95,0.00,CLR,,0.00,WeatherDisplay:10.37,2014-09-16 06:46:00,
2014-09-16 01:47:00,41.3,40.0,30.19,SW,230,0.0,0.0,95,0.00,CLR,,0.00,WeatherDisplay:10.37,2014-09-16 06:47:00,
2014-09-16 01:51:00,41.3,40.0,30.19,SW,230,0.0,0.0,95,0.00,CLR,,0.00,WeatherDisplay:10.37,2014-09-16 06:51:00,
2014-09-16 01:52:00,41.3,40.0,30.19,SW,230,0.0,0.0,95,0.00,CLR,,0.00,WeatherDisplay:10.37,2014-09-16 06:52:00,
2014-09-16 01:56:00,41.3,40.0,30.19,SW,230,0.0,0.0,95,0.00,CLR,,0.00,WeatherDisplay:10.37,2014-09-16 06:56:00,
2014-09-16 01:57:00,41.2,39.9,30.19,SW,230,0.0,0.0,95,0.00,CLR,,0.00,WeatherDisplay:10.37,2014-09-16 06:57:00,
2014-09-16 02:01:00,41.0,39.7,30.19,SW,230,0.0,0.0,95,0.00,CLR,,0.00,WeatherDisplay:10.37,2014-09-16 07:01:00,
2014-09-16 02:02:00,41.0,39.7,30.19,SW,230,0.0,0.0,95,0.00,CLR,,0.00,WeatherDisplay:10.37,2014-09-16 07:02:00,
2014-09-16 02:06:00,40.9,39.6,30.19,SW,230,0.0,0.0,95,0.00,CLR,,0.00,WeatherDisplay:10.37,2014-09-16 07:06:00,
2014-09-16 02:07:00,40.7,39.4,30.19,SW,230,0.0,0.0,95,0.00,CLR,,0.00,WeatherDisplay:10.37,2014-09-16 07:07:00,
2014-09-16 02:08:00,40.7,39.4,30.19,SW,230,0.0,0.0,95,0.00,CLR,,0.00,WeatherDisplay:10.37,2014-09-16 07:08:00,
2014-09-16 02:11:00,40.5,39.2,30.19,SW,230,0.0,0.0,95,0.00,CLR,,0.00,WeatherDisplay:10.37,2014-09-16 07:11:00,
2014-09-16 02:12:00,40.6,39.3,30.19,SW,230,0.0,0.0,95,0.00,CLR,,0.00,WeatherDisplay:10.37,2014-09-16 07:12:00,
2014-09-16 02:13:00,40.4,39.1,30.19,SW,230,0.0,0.0,95,0.00,CLR,,0.00,WeatherDisplay:10.37,2014-09-16 07:13:00,
2014-09-16 02:16:00,40.4,39.1,30.19,WNW,296,0.0,1.2,95,0.00,CLR,,0.00,WeatherDisplay:10.37,2014-09-16 07:16:00,
2014-09-16 02:17:00,40.4,39.1,30.19,WNW,296,0.0,0.0,95,0.00,CLR,,0.00,WeatherDisplay:10.37,2014-09-16 07:17:00,
2014-09-16 02:18:00,40.4,39.1,30.19,WNW,296,0.0,0.0,95,0.00,CLR,,0.00,WeatherDisplay:10.37,2014-09-16 07:18:00,
2014-09-16 02:21:00,40.3,39.0,30.19,WNW,296,0.0,0.0,95,0.00,CLR,,0.00,WeatherDisplay:10.37,2014-09-16 07:21:00,
2014-09-16 02:22:00,40.2,38.9,30.19,WNW,296,0.0,0.0,95,0.00,CLR,,0.00,WeatherDisplay:10.37,2014-09-16 07:22:00,
2014-09-16 02:23:00,40.2,38.9,30.19,WNW,294,0.2,0.0,95,0.00,CLR,,0.00,WeatherDisplay:10.37,2014-09-16 07:23:00,
2014-09-16 02:27:00,40.2,38.9,30.19,WNW,294,0.0,0.0,95,0.00,CLR,,0.00,WeatherDisplay:10.37,2014-09-16 07:27:00,
2014-09-16 02:28:00,40.1,38.8,30.19,WNW,294,0.0,0.0,95,0.00,CLR,,0.00,WeatherDisplay:10.37,2014-09-16 07:28:00,
2014-09-16 02:32:00,39.9,38.6,30.19,WNW,294,0.0,0.0,95,0.00,CLR,,0.00,WeatherDisplay:10.37,2014-09-16 07:32:00,
2014-09-16 02:34:00,39.9,38.6,30.19,WNW,294,0.0,0.0,95,0.00,CLR,,0.00,WeatherDisplay:10.37,2014-09-16 07:34:00,
2014-09-16 02:37:00,39.8,38.5,30.20,WNW,294,0.0,0.0,95,0.00,CLR,,0.00,WeatherDisplay:10.37,2014-09-16 07:37:00,
2014-09-16 02:38:00,39.9,38.6,30.20,WNW,294,0.0,0.0,95,0.00,CLR,,0.00,WeatherDisplay:10.37,2014-09-16 07:38:00,
2014-09-16 02:39:00,39.8,38.5,30.20,WNW,294,0.0,0.0,95,0.00,CLR,,0.00,WeatherDisplay:10.37,2014-09-16 07:39:00,
2014-09-16 02:42:00,39.6,38.3,30.20,WNW,294,0.0,0.0,95,0.00,CLR,,0.00,WeatherDisplay:10.37,2014-09-16 07:42:00,
2014-09-16 02:43:00,39.6,38.3,30.20,WNW,294,0.0,0.0,95,0.00,CLR,,0.00,WeatherDisplay:10.37,2014-09-16 07:43:00,
2014-09-16 02:44:00,39.6,38.3,30.20,WNW,294,0.0,0.0,95,0.00,CLR,,0.00,WeatherDisplay:10.37,2014-09-16 07:44:00,
2014-09-16 02:47:00,39.4,38.1,30.20,WNW,294,0.0,0.0,95,0.00,CLR,,0.00,WeatherDisplay:10.37,2014-09-16 07:47:00,
2014-09-16 02:48:00,39.3,38.0,30.20,WNW,294,0.0,0.0,95,0.00,CLR,,0.00,WeatherDisplay:10.37,2014-09-16 07:48:00,
2014-09-16 02:49:00,39.3,38.0,30.20,WNW,294,0.0,0.0,95,0.00,CLR,,0.00,WeatherDisplay:10.37,2014-09-16 07:49:00,
2014-09-16 02:52:00,39.2,37.9,30.20,WNW,294,0.0,0.0,95,0.00,CLR,,0.00,WeatherDisplay:10.37,2014-09-16 07:52:00,
2014-09-16 02:53:00,39.2,37.9,30.20,WNW,294,0.0,0.0,95,0.00,CLR,,0.00,WeatherDisplay:10.37,2014-09-16 07:53:00,
2014-09-16 02:54:00,39.0,37.7,30.20,WNW,294,0.0,0.0,95,0.00,CLR,,0.00,WeatherDisplay:10.37,2014-09-16 07:54:00,
2014-09-16 02:57:00,38.9,37.6,30.20,WNW,294,0.0,0.0,95,0.00,CLR,,0.00,WeatherDisplay:10.37,2014-09-16 07:57:00,
2014-09-16 02:58:00,38.9,37.6,30.20,WNW,294,0.0,0.0,95,0.00,CLR,,0.00,WeatherDisplay:10.37,2014-09-16 07:58:00,
2014-09-16 02:59:00,39.0,37.7,30.20,WNW,294,0.0,0.0,95,0.00,CLR,,0.00,WeatherDisplay:10.37,2014-09-16 07:59:00,
2014-09-16 03:02:00,38.8,37.5,30.20,WNW,294,0.0,0.0,95,0.00,CLR,,0.00,WeatherDisplay:10.37,2014-09-16 08:02:00,
2014-09-16 03:03:00,38.7,37.4,30.20,WNW,294,0.0,0.0,95,0.00,CLR,,0.00,WeatherDisplay:10.37,2014-09-16 08:03:00,
2014-09-16 03:05:00,38.7,37.4,30.20,WNW,294,0.0,0.0,95,0.00,CLR,,0.00,WeatherDisplay:10.37,2014-09-16 08:05:00,
2014-09-16 03:07:00,38.6,37.3,30.20,WNW,294,0.0,0.0,95,0.00,CLR,,0.00,WeatherDisplay:10.37,2014-09-16 08:07:00,
2014-09-16 03:08:00,38.6,37.3,30.20,WNW,294,0.0,0.0,95,0.00,CLR,,0.00,WeatherDisplay:10.37,2014-09-16 08:08:00,
2014-09-16 03:10:00,38.4,37.1,30.20,WNW,294,0.0,0.0,95,0.00,CLR,,0.00,WeatherDisplay:10.37,2014-09-16 08:10:00,
2014-09-16 03:13:00,38.3,37.0,30.20,WNW,294,0.0,0.0,95,0.00,CLR,,0.00,WeatherDisplay:10.37,2014-09-16 08:13:00,
2014-09-16 03:15:00,38.3,37.0,30.20,WNW,294,0.0,0.0,95,0.00,CLR,,0.00,WeatherDisplay:10.37,2014-09-16 08:15:00,
2014-09-16 03:17:00,38.2,36.9,30.20,WNW,294,0.0,0.0,95,0.00,CLR,,0.00,WeatherDisplay:10.37,2014-09-16 08:17:00,
2014-09-16 03:18:00,38.1,36.8,30.20,WNW,294,0.0,0.0,95,0.00,CLR,,0.00,WeatherDisplay:10.37,2014-09-16 08:18:00,
2014-09-16 03:21:00,38.0,36.7,30.20,WNW,294,0.0,0.0,95,0.00,CLR,,0.00,WeatherDisplay:10.37,2014-09-16 08:21:00,
2014-09-16 03:22:00,38.0,36.7,30.20,WNW,294,0.0,0.0,95,0.00,CLR,,0.00,WeatherDisplay:10.37,2014-09-16 08:22:00,
2014-09-16 03:23:00,38.0,36.7,30.20,WNW,294,0.0,0.0,95,0.00,CLR,,0.00,WeatherDisplay:10.37,2014-09-16 08:23:00,
2014-09-16 03:26:00,37.9,36.6,30.20,WNW,294,0.0,0.0,95,0.00,CLR,,0.00,WeatherDisplay:10.37,2014-09-16 08:26:00,
2014-09-16 03:28:00,37.8,36.5,30.20,WNW,294,0.0,0.0,95,0.00,CLR,,0.00,WeatherDisplay:10.37,2014-09-16 08:28:00,
2014-09-16 03:31:00,37.7,36.4,30.20,WNW,294,0.0,0.0,95,0.00,CLR,,0.00,WeatherDisplay:10.37,2014-09-16 08:31:00,
2014-09-16 03:33:00,37.7,36.4,30.20,WNW,294,0.0,0.0,95,0.00,CLR,,0.00,WeatherDisplay:10.37,2014-09-16 08:33:00,
2014-09-16 03:36:00,37.7,36.4,30.20,WNW,294,0.0,0.0,95,0.00,CLR,,0.00,WeatherDisplay:10.37,2014-09-16 08:36:00,
2014-09-16 03:38:00,37.6,36.3,30.20,WNW,294,0.0,0.0,95,0.00,CLR,,0.00,WeatherDisplay:10.37,2014-09-16 08:38:00,
2014-09-16 03:41:00,37.4,36.1,30.20,WNW,294,0.0,0.0,95,0.00,CLR,,0.00,WeatherDisplay:10.37,2014-09-16 08:41:00,
2014-09-16 03:43:00,37.4,36.1,30.20,WNW,294,0.0,0.0,95,0.00,CLR,,0.00,WeatherDisplay:10.37,2014-09-16 08:43:00,
2014-09-16 03:46:00,37.4,36.1,30.20,WNW,294,0.0,0.0,95,0.00,CLR,,0.00,WeatherDisplay:10.37,2014-09-16 08:46:00,
2014-09-16 03:49:00,37.4,36.1,30.20,WNW,294,0.0,0.0,95,0.00,CLR,,0.00,WeatherDisplay:10.37,2014-09-16 08:49:00,
2014-09-16 03:51:00,37.4,36.1,30.20,WNW,294,0.0,0.0,95,0.00,CLR,,0.00,WeatherDisplay:10.37,2014-09-16 08:51:00,
2014-09-16 03:54:00,37.3,36.0,30.20,WNW,294,0.0,0.0,95,0.00,CLR,,0.00,WeatherDisplay:10.37,2014-09-16 08:54:00,
2014-09-16 03:56:00,37.2,35.9,30.20,WNW,294,0.0,0.0,95,0.00,CLR,,0.00,WeatherDisplay:10.37,2014-09-16 08:56:00,
2014-09-16 03:59:00,37.2,35.9,30.20,WNW,294,0.0,0.0,95,0.00,CLR,,0.00,WeatherDisplay:10.37,2014-09-16 08:59:00,
2014-09-16 04:01:00,37.1,35.8,30.20,WNW,294,0.0,0.0,95,0.00,CLR,,0.00,WeatherDisplay:10.37,2014-09-16 09:01:00,
2014-09-16 04:02:00,37.2,35.9,30.20,WNW,294,0.0,0.0,95,0.00,CLR,,0.00,WeatherDisplay:10.37,2014-09-16 09:02:00,
2014-09-16 04:04:00,37.2,35.9,30.20,WNW,294,0.0,0.0,95,0.00,CLR,,0.00,WeatherDisplay:10.37,2014-09-16 09:04:00,
2014-09-16 04:06:00,37.1,35.8,30.20,WNW,294,0.0,0.0,95,0.00,CLR,,0.00,WeatherDisplay:10.37,2014-09-16 09:06:00,
2014-09-16 04:07:00,37.1,35.8,30.20,WNW,294,0.0,0.0,95,0.00,CLR,,0.00,WeatherDisplay:10.37,2014-09-16 09:07:00,
2014-09-16 04:09:00,36.9,35.6,30.19,WNW,294,0.0,0.0,95,0.00,CLR,,0.00,WeatherDisplay:10.37,2014-09-16 09:09:00,
2014-09-16 04:11:00,36.9,35.6,30.19,WNW,294,0.0,0.0,95,0.00,CLR,,0.00,WeatherDisplay:10.37,2014-09-16 09:11:00,
2014-09-16 04:12:00,36.7,35.4,30.19,WNW,294,0.0,0.0,95,0.00,CLR,,0.00,WeatherDisplay:10.37,2014-09-16 09:12:00,
2014-09-16 04:14:00,36.7,35.4,30.19,WNW,294,0.0,0.0,95,0.00,CLR,,0.00,WeatherDisplay:10.37,2014-09-16 09:14:00,
2014-09-16 04:16:00,36.7,35.4,30.19,WNW,294,0.0,0.0,95,0.00,CLR,,0.00,WeatherDisplay:10.37,2014-09-16 09:16:00,
2014-09-16 04:17:00,36.8,35.5,30.19,WNW,294,0.0,0.0,95,0.00,CLR,,0.00,WeatherDisplay:10.37,2014-09-16 09:17:00,
2014-09-16 04:19:00,36.7,35.4,30.19,WNW,294,0.0,0.0,95,0.00,CLR,,0.00,WeatherDisplay:10.37,2014-09-16 09:19:00,
2014-09-16 04:21:00,36.8,35.5,30.19,WNW,294,0.0,0.0,95,0.00,CLR,,0.00,WeatherDisplay:10.37,2014-09-16 09:21:00,
2014-09-16 04:22:00,36.7,35.4,30.19,WNW,294,0.0,0.0,95,0.00,CLR,,0.00,WeatherDisplay:10.37,2014-09-16 09:22:00,
2014-09-16 04:24:00,36.7,35.4,30.19,WNW,294,0.0,0.0,95,0.00,CLR,,0.00,WeatherDisplay:10.37,2014-09-16 09:24:00,
2014-09-16 04:27:00,36.7,35.4,30.19,WNW,294,0.0,0.0,95,0.00,CLR,,0.00,WeatherDisplay:10.37,2014-09-16 09:27:00,
2014-09-16 04:29:00,36.6,35.3,30.19,WNW,294,0.0,0.0,95,0.00,CLR,,0.00,WeatherDisplay:10.37,2014-09-16 09:29:00,
2014-09-16 04:32:00,36.5,35.2,30.19,WNW,294,0.0,0.0,95,0.00,CLR,,0.00,WeatherDisplay:10.37,2014-09-16 09:32:00,
2014-09-16 04:33:00,36.5,35.2,30.19,WNW,294,0.0,0.0,95,0.00,CLR,,0.00,WeatherDisplay:10.37,2014-09-16 09:33:00,
2014-09-16 04:34:00,36.4,35.1,30.19,WNW,294,0.0,0.0,95,0.00,CLR,,0.00,WeatherDisplay:10.37,2014-09-16 09:34:00,
2014-09-16 04:37:00,36.4,35.1,30.19,WNW,294,0.0,0.0,95,0.00,CLR,,0.00,WeatherDisplay:10.37,2014-09-16 09:37:00,
2014-09-16 04:38:00,36.5,35.2,30.19,WNW,294,0.0,0.0,95,0.00,CLR,,0.00,WeatherDisplay:10.37,2014-09-16 09:38:00,
2014-09-16 04:42:00,36.4,35.1,30.19,WNW,294,0.0,0.0,95,0.00,CLR,,0.00,WeatherDisplay:10.37,2014-09-16 09:42:00,
2014-09-16 04:43:00,36.4,35.1,30.19,WNW,294,0.0,0.0,95,0.00,CLR,,0.00,WeatherDisplay:10.37,2014-09-16 09:43:00,
2014-09-16 04:47:00,36.3,35.0,30.19,WNW,294,0.0,0.0,95,0.00,CLR,,0.00,WeatherDisplay:10.37,2014-09-16 09:47:00,
2014-09-16 04:48:00,36.3,35.0,30.19,WNW,294,0.0,0.0,95,0.00,CLR,,0.00,WeatherDisplay:10.37,2014-09-16 09:48:00,
2014-09-16 04:52:00,36.2,34.9,30.19,WNW,294,0.0,0.0,95,0.00,CLR,,0.00,WeatherDisplay:10.37,2014-09-16 09:52:00,
2014-09-16 04:53:00,36.3,35.0,30.19,WNW,294,0.0,0.0,95,0.00,CLR,,0.00,WeatherDisplay:10.37,2014-09-16 09:53:00,
2014-09-16 04:57:00,36.2,34.9,30.19,WNW,294,0.0,0.0,95,0.00,CLR,,0.00,WeatherDisplay:10.37,2014-09-16 09:57:00,
2014-09-16 04:58:00,36.3,35.0,30.19,WNW,294,0.0,0.0,95,0.00,CLR,,0.00,WeatherDisplay:10.37,2014-09-16 09:58:00,
2014-09-16 05:02:00,36.1,34.8,30.19,WNW,294,0.0,0.0,95,0.00,CLR,,0.00,WeatherDisplay:10.37,2014-09-16 10:02:00,
2014-09-16 05:03:00,36.2,34.9,30.19,WNW,294,0.0,0.0,95,0.00,CLR,,0.00,WeatherDisplay:10.37,2014-09-16 10:03:00,
2014-09-16 05:07:00,36.0,34.7,30.19,WNW,294,0.0,0.0,95,0.00,CLR,,0.00,WeatherDisplay:10.37,2014-09-16 10:07:00,
2014-09-16 05:08:00,36.0,34.7,30.19,WNW,294,0.0,0.0,95,0.00,CLR,,0.00,WeatherDisplay:10.37,2014-09-16 10:08:00,
2014-09-16 05:09:00,36.0,34.7,30.19,WNW,294,0.0,0.0,95,0.00,CLR,,0.00,WeatherDisplay:10.37,2014-09-16 10:09:00,
2014-09-16 05:13:00,36.0,34.7,30.19,WNW,294,0.0,0.0,95,0.00,CLR,,0.00,WeatherDisplay:10.37,2014-09-16 10:13:00,
2014-09-16 05:14:00,36.0,34.7,30.19,WNW,294,0.0,0.0,95,0.00,CLR,,0.00,WeatherDisplay:10.37,2014-09-16 10:14:00,
2014-09-16 05:17:00,35.9,34.6,30.19,WNW,294,0.0,0.0,95,0.00,CLR,,0.00,WeatherDisplay:10.37,2014-09-16 10:17:00,
2014-09-16 05:18:00,35.9,34.6,30.19,WNW,294,0.0,0.0,95,0.00,CLR,,0.00,WeatherDisplay:10.37,2014-09-16 10:18:00,
2014-09-16 05:19:00,35.8,34.5,30.19,WNW,294,0.0,0.0,95,0.00,CLR,,0.00,WeatherDisplay:10.37,2014-09-16 10:19:00,
2014-09-16 05:22:00,35.7,34.4,30.19,WNW,294,0.0,0.0,95,0.00,CLR,,0.00,WeatherDisplay:10.37,2014-09-16 10:22:00,
2014-09-16 05:24:00,35.7,34.4,30.19,WNW,294,0.0,0.0,95,0.00,CLR,,0.00,WeatherDisplay:10.37,2014-09-16 10:24:00,
2014-09-16 05:27:00,35.8,34.5,30.19,WNW,294,0.0,0.0,95,0.00,CLR,,0.00,WeatherDisplay:10.37,2014-09-16 10:27:00,
2014-09-16 05:29:00,35.6,34.3,30.19,WNW,294,0.0,0.0,95,0.00,CLR,,0.00,WeatherDisplay:10.37,2014-09-16 10:29:00,
2014-09-16 05:33:00,35.7,34.4,30.19,WNW,294,0.0,0.0,95,0.00,CLR,,0.00,WeatherDisplay:10.37,2014-09-16 10:33:00,
2014-09-16 05:34:00,35.6,34.3,30.19,WNW,294,0.0,0.0,95,0.00,CLR,,0.00,WeatherDisplay:10.37,2014-09-16 10:34:00,
2014-09-16 05:38:00,35.5,34.2,30.19,WNW,294,0.0,0.0,95,0.00,CLR,,0.00,WeatherDisplay:10.37,2014-09-16 10:38:00,
2014-09-16 05:39:00,35.5,34.2,30.19,WNW,294,0.0,0.0,95,0.00,CLR,,0.00,WeatherDisplay:10.37,2014-09-16 10:39:00,
2014-09-16 05:43:00,35.5,34.2,30.19,WNW,294,0.0,0.0,95,0.00,CLR,,0.00,WeatherDisplay:10.37,2014-09-16 10:43:00,
2014-09-16 05:44:00,35.6,34.3,30.19,WNW,294,0.0,0.0,95,0.00,CLR,,0.00,WeatherDisplay:10.37,2014-09-16 10:44:00,
2014-09-16 05:48:00,35.4,34.1,30.19,WNW,294,0.0,0.0,95,0.00,CLR,,0.00,WeatherDisplay:10.37,2014-09-16 10:48:00,
2014-09-16 05:49:00,35.3,34.0,30.19,WNW,294,0.0,0.0,95,0.00,CLR,,0.00,WeatherDisplay:10.37,2014-09-16 10:49:00,
2014-09-16 05:53:00,35.3,34.0,30.19,WNW,294,0.0,0.0,95,0.00,CLR,,0.00,WeatherDisplay:10.37,2014-09-16 10:53:00,
2014-09-16 05:54:00,35.4,34.1,30.19,WNW,294,0.0,0.0,95,0.00,CLR,,0.00,WeatherDisplay:10.37,2014-09-16 10:54:00,
2014-09-16 05:58:00,35.2,33.9,30.19,WNW,294,0.0,0.0,95,0.00,CLR,,0.00,WeatherDisplay:10.37,2014-09-16 10:58:00,
2014-09-16 06:00:00,35.1,33.8,30.19,WNW,294,0.0,0.0,95,0.00,CLR,,0.00,WeatherDisplay:10.37,2014-09-16 11:00:00,
2014-09-16 06:03:00,35.0,33.7,30.19,WNW,294,0.0,0.0,95,0.00,CLR,,0.00,WeatherDisplay:10.37,2014-09-16 11:03:00,
2014-09-16 06:05:00,35.0,33.7,30.19,WNW,294,0.0,0.0,95,0.00,CLR,,0.00,WeatherDisplay:10.37,2014-09-16 11:05:00,
2014-09-16 06:08:00,34.9,33.6,30.19,WNW,294,0.0,0.0,95,0.00,CLR,,0.00,WeatherDisplay:10.37,2014-09-16 11:08:00,
2014-09-16 06:10:00,34.9,33.6,30.19,WNW,294,0.0,0.0,95,0.00,CLR,,0.00,WeatherDisplay:10.37,2014-09-16 11:10:00,
2014-09-16 06:14:00,34.8,33.5,30.19,WNW,294,0.0,0.0,95,0.00,CLR,,0.00,WeatherDisplay:10.37,2014-09-16 11:14:00,
2014-09-16 06:15:00,34.8,33.8,30.19,WNW,294,0.0,0.0,96,0.00,CLR,,0.00,WeatherDisplay:10.37,2014-09-16 11:15:00,
2014-09-16 06:19:00,34.7,33.7,30.19,WNW,294,0.0,0.0,96,0.00,CLR,,0.00,WeatherDisplay:10.37,2014-09-16 11:19:00,
2014-09-16 06:20:00,34.7,33.7,30.19,WNW,294,0.0,0.0,96,0.00,CLR,,0.00,WeatherDisplay:10.37,2014-09-16 11:20:00,
2014-09-16 06:24:00,34.7,33.7,30.19,WNW,294,0.0,0.0,96,0.00,CLR,,0.00,WeatherDisplay:10.37,2014-09-16 11:24:00,
2014-09-16 06:25:00,34.7,33.7,30.19,WNW,294,0.0,0.0,96,0.00,CLR,,0.00,WeatherDisplay:10.37,2014-09-16 11:25:00,
2014-09-16 06:29:00,34.7,33.7,30.19,WNW,294,0.0,0.0,96,0.00,CLR,,0.00,WeatherDisplay:10.37,2014-09-16 11:29:00,
2014-09-16 06:30:00,34.7,33.7,30.19,WNW,294,0.0,0.0,96,0.00,CLR,,0.00,WeatherDisplay:10.37,2014-09-16 11:30:00,
2014-09-16 06:34:00,34.5,33.5,30.20,WNW,294,0.0,0.0,96,0.00,CLR,,0.00,WeatherDisplay:10.37,2014-09-16 11:34:00,
2014-09-16 06:35:00,34.6,33.6,30.20,WNW,294,0.0,0.0,96,0.00,CLR,,0.00,WeatherDisplay:10.37,2014-09-16 11:35:00,
2014-09-16 06:39:00,34.4,33.4,30.20,WNW,294,0.0,0.0,96,0.00,CLR,,0.00,WeatherDisplay:10.37,2014-09-16 11:39:00,
2014-09-16 06:40:00,34.4,33.4,30.20,WNW,294,0.0,0.0,96,0.00,CLR,,0.00,WeatherDisplay:10.37,2014-09-16 11:40:00,
2014-09-16 06:41:00,34.4,33.4,30.20,WNW,294,0.0,0.0,96,0.00,CLR,,0.00,WeatherDisplay:10.37,2014-09-16 11:41:00,
2014-09-16 06:44:00,34.4,33.4,30.20,WNW,294,0.0,0.0,96,0.00,CLR,,0.00,WeatherDisplay:10.37,2014-09-16 11:44:00,
2014-09-16 06:46:00,34.4,33.4,30.20,WNW,294,0.0,0.0,96,0.00,CLR,,0.00,WeatherDisplay:10.37,2014-09-16 11:46:00,
2014-09-16 06:49:00,34.4,33.4,30.20,WNW,294,0.0,0.0,96,0.00,CLR,,0.00,WeatherDisplay:10.37,2014-09-16 11:49:00,
2014-09-16 06:51:00,34.3,33.3,30.20,WNW,294,0.0,0.0,96,0.00,CLR,,0.00,WeatherDisplay:10.37,2014-09-16 11:51:00,
2014-09-16 06:54:00,34.3,33.3,30.20,WNW,294,0.0,0.0,96,0.00,CLR,,0.00,WeatherDisplay:10.37,2014-09-16 11:54:00,
2014-09-16 06:56:00,34.4,33.4,30.20,WNW,294,0.0,0.0,96,0.00,CLR,,0.00,WeatherDisplay:10.37,2014-09-16 11:56:00,
2014-09-16 07:00:00,34.3,33.3,30.20,WNW,294,0.0,0.0,96,0.00,CLR,,0.00,WeatherDisplay:10.37,2014-09-16 12:00:00,
2014-09-16 07:01:00,34.3,33.3,30.20,WNW,294,0.0,0.0,96,0.00,CLR,,0.00,WeatherDisplay:10.37,2014-09-16 12:01:00,
2014-09-16 07:05:00,34.3,33.3,30.20,WNW,294,0.0,0.0,96,0.00,CLR,,0.00,WeatherDisplay:10.37,2014-09-16 12:05:00,
2014-09-16 07:06:00,34.3,33.3,30.20,WNW,294,0.0,0.0,96,0.00,CLR,,0.00,WeatherDisplay:10.37,2014-09-16 12:06:00,
2014-09-16 07:11:00,34.4,33.4,30.20,WNW,294,0.0,0.0,96,0.00,CLR,,0.00,WeatherDisplay:10.37,2014-09-16 12:11:00,
2014-09-16 07:12:00,34.3,33.3,30.20,WNW,294,0.0,0.0,96,0.00,CLR,,0.00,WeatherDisplay:10.37,2014-09-16 12:12:00,
2014-09-16 07:16:00,34.4,33.4,30.20,WNW,294,0.0,0.0,96,0.00,CLR,,0.00,WeatherDisplay:10.37,2014-09-16 12:16:00,
2014-09-16 07:17:00,34.4,33.4,30.20,WNW,294,0.0,0.0,96,0.00,CLR,,0.00,WeatherDisplay:10.37,2014-09-16 12:17:00,
2014-09-16 07:21:00,34.6,33.6,30.20,WNW,294,0.0,0.0,96,0.00,CLR,,0.00,WeatherDisplay:10.37,2014-09-16 12:21:00,
2014-09-16 07:22:00,34.7,33.7,30.20,WNW,294,0.0,0.0,96,0.00,CLR,,0.00,WeatherDisplay:10.37,2014-09-16 12:22:00,
2014-09-16 07:27:00,34.8,33.8,30.20,WNW,294,0.0,0.0,96,0.00,CLR,,0.00,WeatherDisplay:10.37,2014-09-16 12:27:00,
2014-09-16 07:32:00,35.0,34.0,30.20,WNW,294,0.0,0.0,96,0.00,CLR,,0.00,WeatherDisplay:10.37,2014-09-16 12:32:00,
2014-09-16 07:37:00,35.2,34.2,30.20,WNW,294,0.0,0.0,96,0.00,CLR,,0.00,WeatherDisplay:10.37,2014-09-16 12:37:00,
2014-09-16 07:42:00,35.6,34.6,30.20,WNW,294,0.0,0.0,96,0.00,CLR,,0.00,WeatherDisplay:10.37,2014-09-16 12:42:00,
2014-09-16 07:47:00,36.0,35.0,30.20,WNW,294,0.0,0.0,96,0.00,CLR,,0.00,WeatherDisplay:10.37,2014-09-16 12:47:00,
2014-09-16 07:48:00,35.9,34.9,30.19,WNW,294,0.0,0.0,96,0.00,CLR,,0.00,WeatherDisplay:10.37,2014-09-16 12:48:00,
2014-09-16 07:52:00,36.5,35.5,30.19,WNW,294,0.0,0.0,96,0.00,CLR,,0.00,WeatherDisplay:10.37,2014-09-16 12:52:00,
2014-09-16 07:53:00,36.6,35.6,30.20,WNW,294,0.0,0.0,96,0.00,CLR,,0.00,WeatherDisplay:10.37,2014-09-16 12:53:00,
2014-09-16 07:57:00,36.9,35.9,30.20,WNW,294,0.0,0.0,96,0.00,CLR,,0.00,WeatherDisplay:10.37,2014-09-16 12:57:00,
2014-09-16 07:58:00,37.1,36.1,30.20,WNW,294,0.0,0.0,96,0.00,CLR,,0.00,WeatherDisplay:10.37,2014-09-16 12:58:00,
2014-09-16 08:02:00,37.4,36.4,30.20,WNW,294,0.0,0.0,96,0.00,CLR,,0.00,WeatherDisplay:10.37,2014-09-16 13:02:00,
2014-09-16 08:03:00,37.7,36.7,30.19,WNW,294,0.0,0.0,96,0.00,CLR,,0.00,WeatherDisplay:10.37,2014-09-16 13:03:00,
2014-09-16 08:07:00,38.1,37.1,30.20,WNW,294,0.0,0.0,96,0.00,CLR,,0.00,WeatherDisplay:10.37,2014-09-16 13:07:00,
2014-09-16 08:08:00,38.2,37.2,30.20,WNW,294,0.0,0.0,96,0.00,CLR,,0.00,WeatherDisplay:10.37,2014-09-16 13:08:00,
2014-09-16 08:12:00,38.7,37.7,30.20,WNW,294,0.0,0.0,96,0.00,CLR,,0.00,WeatherDisplay:10.37,2014-09-16 13:12:00,
2014-09-16 08:13:00,38.9,37.9,30.20,WNW,294,0.0,0.0,96,0.00,CLR,,0.00,WeatherDisplay:10.37,2014-09-16 13:13:00,
2014-09-16 08:17:00,39.8,38.8,30.20,WNW,294,0.0,0.0,96,0.00,CLR,,0.00,WeatherDisplay:10.37,2014-09-16 13:17:00,
2014-09-16 08:18:00,40.0,39.0,30.20,WNW,294,0.0,0.0,96,0.00,CLR,,0.00,WeatherDisplay:10.37,2014-09-16 13:18:00,
2014-09-16 08:22:00,40.7,39.6,30.20,WNW,294,0.0,0.0,96,0.00,CLR,,0.00,WeatherDisplay:10.37,2014-09-16 13:22:00,
2014-09-16 08:23:00,40.8,39.7,30.20,WNW,294,0.0,0.0,96,0.00,CLR,,0.00,WeatherDisplay:10.37,2014-09-16 13:23:00,
2014-09-16 08:27:00,41.3,40.2,30.20,WNW,294,0.0,0.0,96,0.00,CLR,,0.00,WeatherDisplay:10.37,2014-09-16 13:27:00,
2014-09-16 08:28:00,41.3,40.2,30.20,WNW,294,0.0,0.0,96,0.00,CLR,,0.00,WeatherDisplay:10.37,2014-09-16 13:28:00,
2014-09-16 08:29:00,41.5,40.4,30.19,WNW,294,0.0,0.0,96,0.00,CLR,,0.00,WeatherDisplay:10.37,2014-09-16 13:29:00,
2014-09-16 08:32:00,42.0,40.9,30.19,WNW,294,0.0,0.0,96,0.00,CLR,,0.00,WeatherDisplay:10.37,2014-09-16 13:32:00,
2014-09-16 08:33:00,42.0,40.9,30.19,WNW,294,0.0,0.0,96,0.00,CLR,,0.00,WeatherDisplay:10.37,2014-09-16 13:33:00,
2014-09-16 08:34:00,42.1,41.0,30.19,WNW,294,0.0,0.0,96,0.00,CLR,,0.00,WeatherDisplay:10.37,2014-09-16 13:34:00,
2014-09-16 08:37:00,42.5,41.4,30.19,WNW,294,0.0,0.0,96,0.00,CLR,,0.00,WeatherDisplay:10.37,2014-09-16 13:37:00,
2014-09-16 08:38:00,42.5,41.4,30.20,WNW,294,0.0,0.0,96,0.00,CLR,,0.00,WeatherDisplay:10.37,2014-09-16 13:38:00,
2014-09-16 08:39:00,42.7,41.6,30.19,WNW,294,0.0,0.0,96,0.00,CLR,,0.00,WeatherDisplay:10.37,2014-09-16 13:39:00,
2014-09-16 08:42:00,43.1,42.0,30.20,WNW,294,0.0,0.0,96,0.00,CLR,,0.00,WeatherDisplay:10.37,2014-09-16 13:42:00,
2014-09-16 08:43:00,43.1,42.0,30.20,WNW,294,0.0,0.0,96,0.00,CLR,,0.00,WeatherDisplay:10.37,2014-09-16 13:43:00,
2014-09-16 08:44:00,43.3,42.2,30.20,SW,226,0.2,1.2,96,0.00,CLR,,0.00,WeatherDisplay:10.37,2014-09-16 13:44:00,
2014-09-16 08:47:00,43.6,42.5,30.20,SSW,206,0.2,0.0,96,0.00,CLR,,0.00,WeatherDisplay:10.37,2014-09-16 13:47:00,
2014-09-16 08:48:00,43.8,42.7,30.20,SSW,206,0.2,1.2,96,0.00,CLR,,0.00,WeatherDisplay:10.37,2014-09-16 13:48:00,
2014-09-16 08:49:00,43.9,42.8,30.20,West,260,0.5,2.4,96,0.00,CLR,,0.00,WeatherDisplay:10.37,2014-09-16 13:49:00,
2014-09-16 08:53:00,44.1,43.0,30.20,WSW,244,0.0,0.0,96,0.00,CLR,,0.00,WeatherDisplay:10.37,2014-09-16 13:53:00,
2014-09-16 08:54:00,44.4,43.3,30.20,WSW,244,0.0,0.0,96,0.00,CLR,,0.00,WeatherDisplay:10.37,2014-09-16 13:54:00,
2014-09-16 08:58:00,44.8,43.7,30.20,SW,220,0.0,0.0,96,0.00,CLR,,0.00,WeatherDisplay:10.37,2014-09-16 13:58:00,
2014-09-16 08:59:00,45.0,43.9,30.20,SW,220,0.0,0.0,96,0.00,CLR,,0.00,WeatherDisplay:10.37,2014-09-16 13:59:00,
2014-09-16 09:03:00,45.5,44.4,30.20,SW,220,0.0,0.0,96,0.00,CLR,,0.00,WeatherDisplay:10.37,2014-09-16 14:03:00,
2014-09-16 09:04:00,45.6,44.3,30.20,SW,220,0.0,0.0,95,0.00,CLR,,0.00,WeatherDisplay:10.37,2014-09-16 14:04:00,
2014-09-16 09:08:00,45.9,44.8,30.20,SW,220,0.0,0.0,96,0.00,CLR,,0.00,WeatherDisplay:10.37,2014-09-16 14:08:00,
2014-09-16 09:09:00,46.1,44.7,30.20,SW,220,0.0,0.0,95,0.00,CLR,,0.00,WeatherDisplay:10.37,2014-09-16 14:09:00,
2014-09-16 09:13:00,46.3,44.9,30.20,NW,318,1.3,3.5,95,0.00,CLR,,0.00,WeatherDisplay:10.37,2014-09-16 14:13:00,
2014-09-16 09:14:00,46.4,45.0,30.20,West,278,0.7,3.5,95,0.00,CLR,,0.00,WeatherDisplay:10.37,2014-09-16 14:14:00,
2014-09-16 09:18:00,46.8,45.4,30.20,SW,232,1.1,2.3,95,0.00,CLR,,0.00,WeatherDisplay:10.37,2014-09-16 14:18:00,
2014-09-16 09:19:00,46.8,45.4,30.20,SSW,203,0.4,3.0,95,0.00,CLR,,0.00,WeatherDisplay:10.37,2014-09-16 14:19:00,
2014-09-16 09:21:00,47.0,45.6,30.20,WSW,244,2.5,4.6,95,0.00,CLR,,0.00,WeatherDisplay:10.37,2014-09-16 14:21:00,
2014-09-16 09:23:00,47.1,45.7,30.20,SW,223,2.5,4.6,95,0.00,CLR,,0.00,WeatherDisplay:10.37,2014-09-16 14:23:00,
2014-09-16 09:24:00,47.2,45.8,30.20,South,186,2.0,3.5,95,0.00,CLR,,0.00,WeatherDisplay:10.37,2014-09-16 14:24:00,
2014-09-16 09:26:00,47.4,46.0,30.20,WSW,240,3.4,4.6,95,0.00,CLR,,0.00,WeatherDisplay:10.37,2014-09-16 14:26:00,
2014-09-16 09:28:00,47.5,46.1,30.20,SW,234,1.5,2.3,95,0.00,CLR,,0.00,WeatherDisplay:10.37,2014-09-16 14:28:00,
2014-09-16 09:30:00,47.7,46.3,30.20,WNW,298,0.7,1.3,95,0.00,CLR,,0.00,WeatherDisplay:10.37,2014-09-16 14:30:00,
2014-09-16 09:32:00,47.8,46.4,30.20,WSW,250,0.0,0.0,95,0.00,CLR,,0.00,WeatherDisplay:10.37,2014-09-16 14:32:00,
2014-09-16 09:33:00,47.9,46.5,30.20,WSW,250,0.0,0.0,95,0.00,CLR,,0.00,WeatherDisplay:10.37,2014-09-16 14:33:00,
2014-09-16 09:35:00,48.1,46.7,30.20,SW,223,1.0,2.3,95,0.00,CLR,,0.00,WeatherDisplay:10.37,2014-09-16 14:35:00,
2014-09-16 09:37:00,48.2,46.8,30.20,SW,234,3.7,4.6,95,0.00,CLR,,0.00,WeatherDisplay:10.37,2014-09-16 14:37:00,
2014-09-16 09:38:00,48.4,47.0,30.20,WNW,296,1.4,2.3,95,0.00,CLR,,0.00,WeatherDisplay:10.37,2014-09-16 14:38:00,
2014-09-16 09:40:00,48.5,47.1,30.20,West,260,1.6,2.9,95,0.00,CLR,,0.00,WeatherDisplay:10.37,2014-09-16 14:40:00,
2014-09-16 09:42:00,48.7,47.3,30.20,SW,233,1.6,3.5,95,0.00,CLR,,0.00,WeatherDisplay:10.37,2014-09-16 14:42:00,
2014-09-16 09:43:00,48.8,47.4,30.20,WNW,295,1.2,2.3,95,0.00,CLR,,0.00,WeatherDisplay:10.37,2014-09-16 14:43:00,
2014-09-16 09:46:00,49.0,47.6,30.20,WSW,246,2.2,3.5,95,0.00,CLR,,0.00,WeatherDisplay:10.37,2014-09-16 14:46:00,
2014-09-16 09:48:00,49.4,48.0,30.20,North,360,2.5,4.6,95,0.00,CLR,,0.00,WeatherDisplay:10.37,2014-09-16 14:48:00,
2014-09-16 09:51:00,49.6,47.9,30.20,NW,315,1.3,3.5,94,0.00,CLR,,0.00,WeatherDisplay:10.37,2014-09-16 14:51:00,
2014-09-16 09:53:00,49.7,48.0,30.20,NW,320,4.0,6.9,94,0.00,CLR,,0.00,WeatherDisplay:10.37,2014-09-16 14:53:00,
2014-09-16 09:56:00,49.9,48.2,30.20,WNW,285,2.4,3.5,94,0.00,CLR,,0.00,WeatherDisplay:10.37,2014-09-16 14:56:00,
2014-09-16 09:58:00,50.0,48.3,30.20,NW,320,2.8,4.6,94,0.00,CLR,,0.00,WeatherDisplay:10.37,2014-09-16 14:58:00,
2014-09-16 10:01:00,50.4,48.5,30.20,WNW,291,2.4,3.5,93,0.00,CLR,,0.00,WeatherDisplay:10.37,2014-09-16 15:01:00,
2014-09-16 10:03:00,50.6,48.7,30.20,North,349,2.4,4.6,93,0.00,CLR,,0.00,WeatherDisplay:10.37,2014-09-16 15:03:00,
2014-09-16 10:06:00,50.8,48.6,30.19,West,274,1.8,3.5,92,0.00,CLR,,0.00,WeatherDisplay:10.37,2014-09-16 15:06:00,
2014-09-16 10:07:00,50.9,48.7,30.19,WNW,288,2.3,3.5,92,0.00,CLR,,0.00,WeatherDisplay:10.37,2014-09-16 15:07:00,
2014-09-16 10:08:00,50.9,48.7,30.19,WNW,282,0.5,2.3,92,0.00,CLR,,0.00,WeatherDisplay:10.37,2014-09-16 15:08:00,
2014-09-16 10:11:00,51.2,48.4,30.19,NE,42,1.6,2.3,90,0.00,CLR,,0.00,WeatherDisplay:10.37,2014-09-16 15:11:00,
2014-09-16 10:12:00,51.2,48.4,30.19,ENE,58,1.8,3.5,90,0.00,CLR,,0.00,WeatherDisplay:10.37,2014-09-16 15:12:00,
2014-09-16 10:13:00,51.3,48.5,30.19,NW,320,1.0,4.6,90,0.00,CLR,,0.00,WeatherDisplay:10.37,2014-09-16 15:13:00,
2014-09-16 10:16:00,51.4,48.0,30.19,WSW,253,2.9,3.5,88,0.00,CLR,,0.00,WeatherDisplay:10.37,2014-09-16 15:16:00,
2014-09-16 10:17:00,51.4,48.0,30.19,WSW,251,2.7,4.6,88,0.00,CLR,,0.00,WeatherDisplay:10.37,2014-09-16 15:17:00,
2014-09-16 10:18:00,51.6,48.2,30.19,NW,316,1.8,3.5,88,0.00,CLR,,0.00,WeatherDisplay:10.37,2014-09-16 15:18:00,
2014-09-16 10:21:00,51.9,47.8,30.19,SW,230,1.5,3.5,86,0.00,CLR,,0.00,WeatherDisplay:10.37,2014-09-16 15:21:00,
2014-09-16 10:22:00,51.9,47.8,30.19,WSW,253,1.9,3.5,86,0.00,CLR,,0.00,WeatherDisplay:10.37,2014-09-16 15:22:00,
2014-09-16 10:24:00,52.0,47.6,30.19,NNW,344,2.0,4.7,85,0.00,CLR,,0.00,WeatherDisplay:10.37,2014-09-16 15:24:00,
2014-09-16 10:26:00,52.2,47.2,30.19,NW,308,2.5,4.6,83,0.00,CLR,,0.00,WeatherDisplay:10.37,2014-09-16 15:26:00,
2014-09-16 10:27:00,52.4,47.4,30.19,WNW,294,2.1,3.5,83,0.00,CLR,,0.00,WeatherDisplay:10.37,2014-09-16 15:27:00,
2014-09-16 10:29:00,52.5,47.2,30.19,NW,308,1.9,4.6,82,0.00,CLR,,0.00,WeatherDisplay:10.37,2014-09-16 15:29:00,
2014-09-16 10:32:00,52.7,46.7,30.19,South,176,0.2,1.2,80,0.00,CLR,,0.00,WeatherDisplay:10.37,2014-09-16 15:32:00,
2014-09-16 10:34:00,52.8,46.5,30.19,WNW,282,3.9,8.1,79,0.00,CLR,,0.00,WeatherDisplay:10.37,2014-09-16 15:34:00,
2014-09-16 10:37:00,53.0,46.0,30.19,SW,230,4.4,6.9,77,0.00,CLR,,0.00,WeatherDisplay:10.37,2014-09-16 15:37:00,
2014-09-16 10:38:00,53.0,46.0,30.19,West,260,4.1,6.9,77,0.00,CLR,,0.00,WeatherDisplay:10.37,2014-09-16 15:38:00,
2014-09-16 10:39:00,53.2,45.8,30.19,West,267,3.1,6.9,76,0.00,CLR,,0.00,WeatherDisplay:10.37,2014-09-16 15:39:00,
2014-09-16 10:42:00,53.3,45.6,30.19,SW,233,2.7,4.6,75,0.00,CLR,,0.00,WeatherDisplay:10.37,2014-09-16 15:42:00,
2014-09-16 10:43:00,53.3,45.6,30.19,WSW,254,2.6,4.6,75,0.00,CLR,,0.00,WeatherDisplay:10.37,2014-09-16 15:43:00,
2014-09-16 10:44:00,53.4,45.7,30.19,SSE,162,2.8,3.5,75,0.00,CLR,,0.00,WeatherDisplay:10.37,2014-09-16 15:44:00,
2014-09-16 10:47:00,53.5,45.1,30.19,WNW,291,3.1,8.1,73,0.00,CLR,,0.00,WeatherDisplay:10.37,2014-09-16 15:47:00,
2014-09-16 10:48:00,53.5,44.7,30.18,NW,316,2.7,5.8,72,0.00,CLR,,0.00,WeatherDisplay:10.37,2014-09-16 15:48:00,
2014-09-16 10:49:00,53.6,44.8,30.18,WSW,254,2.8,5.8,72,0.00,CLR,,0.00,WeatherDisplay:10.37,2014-09-16 15:49:00,
2014-09-16 10:53:00,53.8,44.6,30.18,WNW,292,4.6,6.9,71,0.00,CLR,,0.00,WeatherDisplay:10.37,2014-09-16 15:53:00,
2014-09-16 10:54:00,53.9,44.7,30.18,NNW,330,3.7,4.6,71,0.00,CLR,,0.00,WeatherDisplay:10.37,2014-09-16 15:54:00,
2014-09-16 10:58:00,54.2,45.0,30.18,SW,222,2.5,4.6,71,0.00,CLR,,0.00,WeatherDisplay:10.37,2014-09-16 15:58:00,
2014-09-16 10:59:00,54.1,44.9,30.18,WSW,243,2.8,5.6,71,0.00,CLR,,0.00,WeatherDisplay:10.37,2014-09-16 15:59:00,
2014-09-16 11:03:00,54.4,44.8,30.18,NW,316,1.1,3.1,70,0.00,CLR,,0.00,WeatherDisplay:10.37,2014-09-16 16:03:00,
2014-09-16 11:04:00,54.4,44.8,30.18,NE,48,0.7,3.5,70,0.00,CLR,,0.00,WeatherDisplay:10.37,2014-09-16 16:04:00,
2014-09-16 11:08:00,54.6,45.0,30.18,WSW,243,3.8,5.8,70,0.00,CLR,,0.00,WeatherDisplay:10.37,2014-09-16 16:08:00,
2014-09-16 11:09:00,54.7,44.7,30.18,WNW,285,0.1,5.8,69,0.00,CLR,,0.00,WeatherDisplay:10.37,2014-09-16 16:09:00,
2014-09-16 11:13:00,54.9,44.5,30.18,WSW,239,1.1,3.5,68,0.00,CLR,,0.00,WeatherDisplay:10.37,2014-09-16 16:13:00,
2014-09-16 11:15:00,55.0,44.6,30.18,NNE,20,2.1,5.8,68,0.00,CLR,,0.00,WeatherDisplay:10.37,2014-09-16 16:15:00,
2014-09-16 11:18:00,55.1,45.1,30.18,WSW,241,1.6,3.5,69,0.00,CLR,,0.00,WeatherDisplay:10.37,2014-09-16 16:18:00,
2014-09-16 11:20:00,55.2,44.8,30.18,WSW,246,1.9,3.5,68,0.00,CLR,,0.00,WeatherDisplay:10.37,2014-09-16 16:20:00,
2014-09-16 11:23:00,55.3,44.5,30.18,NW,304,4.5,6.9,67,0.00,CLR,,0.00,WeatherDisplay:10.37,2014-09-16 16:23:00,
2014-09-16 11:24:00,55.3,44.5,30.18,NW,312,3.4,6.9,67,0.00,CLR,,0.00,WeatherDisplay:10.37,2014-09-16 16:24:00,
2014-09-16 11:25:00,55.4,45.0,30.18,WNW,302,2.8,4.6,68,0.00,CLR,,0.00,WeatherDisplay:10.37,2014-09-16 16:25:00,
2014-09-16 11:28:00,55.6,44.8,30.18,SW,215,2.0,5.8,67,0.00,CLR,,0.00,WeatherDisplay:10.37,2014-09-16 16:28:00,
2014-09-16 11:29:00,55.6,44.8,30.18,West,267,1.7,5.8,67,0.00,CLR,,0.00,WeatherDisplay:10.37,2014-09-16 16:29:00,
2014-09-16 11:30:00,55.6,44.8,30.18,West,263,1.7,4.8,67,0.00,CLR,,0.00,WeatherDisplay:10.37,2014-09-16 16:30:00,
2014-09-16 11:33:00,55.9,44.3,30.18,WSW,257,5.5,8.1,65,0.00,CLR,,0.00,WeatherDisplay:10.37,2014-09-16 16:33:00,
2014-09-16 11:34:00,55.8,44.2,30.18,WSW,244,4.6,9.2,65,0.00,CLR,,0.00,WeatherDisplay:10.37,2014-09-16 16:34:00,
2014-09-16 11:35:00,55.9,43.9,30.18,West,278,4.5,8.1,64,0.00,CLR,,0.00,WeatherDisplay:10.37,2014-09-16 16:35:00,
2014-09-16 11:38:00,56.0,44.4,30.18,WSW,248,2.1,4.6,65,0.00,CLR,,0.00,WeatherDisplay:10.37,2014-09-16 16:38:00,
2014-09-16 11:39:00,56.0,44.4,30.18,West,267,0.7,2.3,65,0.00,CLR,,0.00,WeatherDisplay:10.37,2014-09-16 16:39:00,
2014-09-16 11:40:00,56.0,44.4,30.17,NW,319,1.4,3.5,65,0.00,CLR,,0.00,WeatherDisplay:10.37,2014-09-16 16:40:00,
2014-09-16 11:43:00,56.1,44.1,30.18,West,277,3.0,4.6,64,0.00,CLR,,0.00,WeatherDisplay:10.37,2014-09-16 16:43:00,
2014-09-16 11:44:00,56.2,44.2,30.17,NW,320,2.3,6.9,64,0.00,CLR,,0.00,WeatherDisplay:10.37,2014-09-16 16:44:00,
2014-09-16 11:45:00,56.2,44.2,30.17,SW,236,2.0,5.8,64,0.00,CLR,,0.00,WeatherDisplay:10.37,2014-09-16 16:45:00,
2014-09-16 11:48:00,56.3,44.3,30.17,SSW,210,0.1,2.3,64,0.00,CLR,,0.00,WeatherDisplay:10.37,2014-09-16 16:48:00,
2014-09-16 11:49:00,56.4,44.4,30.17,NW,305,0.5,1.1,64,0.00,CLR,,0.00,WeatherDisplay:10.37,2014-09-16 16:49:00,
2014-09-16 11:50:00,56.4,44.4,30.17,West,272,3.3,4.6,64,0.00,CLR,,0.00,WeatherDisplay:10.37,2014-09-16 16:50:00,
2014-09-16 11:53:00,56.5,44.5,30.17,NW,323,1.2,3.5,64,0.00,CLR,,0.00,WeatherDisplay:10.37,2014-09-16 16:53:00,
2014-09-16 11:54:00,56.5,44.5,30.17,West,265,1.5,2.3,64,0.00,CLR,,0.00,WeatherDisplay:10.37,2014-09-16 16:54:00,
2014-09-16 11:55:00,56.6,45.0,30.17,West,260,0.6,3.8,65,0.00,CLR,,0.00,WeatherDisplay:10.37,2014-09-16 16:55:00,
2014-09-16 11:58:00,56.8,43.9,30.17,NW,311,2.2,6.9,62,0.00,CLR,,0.00,WeatherDisplay:10.37,2014-09-16 16:58:00,
2014-09-16 11:59:00,56.8,44.3,30.17,NW,305,3.5,3.9,63,0.00,CLR,,0.00,WeatherDisplay:10.37,2014-09-16 16:59:00,
2014-09-16 12:00:00,56.8,44.3,30.17,WNW,298,3.2,8.1,63,0.00,CLR,,0.00,WeatherDisplay:10.37,2014-09-16 17:00:00,
2014-09-16 12:04:00,57.0,43.7,30.17,NNW,347,2.4,5.8,61,0.00,CLR,,0.00,WeatherDisplay:10.37,2014-09-16 17:04:00,
2014-09-16 12:05:00,57.0,43.2,30.17,NW,309,4.9,6.9,60,0.00,CLR,,0.00,WeatherDisplay:10.37,2014-09-16 17:05:00,
2014-09-16 12:09:00,57.0,43.2,30.17,WSW,246,1.9,4.6,60,0.00,CLR,,0.00,WeatherDisplay:10.37,2014-09-16 17:09:00,
2014-09-16 12:10:00,57.0,43.2,30.17,NW,326,3.1,4.6,60,0.00,CLR,,0.00,WeatherDisplay:10.37,2014-09-16 17:10:00,
2014-09-16 12:14:00,57.1,43.8,30.16,WSW,243,1.7,3.3,61,0.00,CLR,,0.00,WeatherDisplay:10.37,2014-09-16 17:14:00,
2014-09-16 12:15:00,57.1,43.8,30.16,WSW,243,3.8,4.6,61,0.00,CLR,,0.00,WeatherDisplay:10.37,2014-09-16 17:15:00,
2014-09-16 12:19:00,57.2,43.9,30.16,NW,306,1.0,5.8,61,0.00,CLR,,0.00,WeatherDisplay:10.37,2014-09-16 17:19:00,
2014-09-16 12:20:00,57.3,43.5,30.16,SW,236,4.5,8.1,60,0.00,CLR,,0.00,WeatherDisplay:10.37,2014-09-16 17:20:00,
2014-09-16 12:24:00,57.4,43.2,30.16,WNW,284,2.3,4.7,59,0.00,CLR,,0.00,WeatherDisplay:10.37,2014-09-16 17:24:00,
2014-09-16 12:25:00,57.4,43.2,30.16,NNW,333,2.2,4.6,59,0.00,CLR,,0.00,WeatherDisplay:10.37,2014-09-16 17:25:00,
2014-09-16 12:29:00,57.6,43.4,30.16,WSW,241,4.7,6.2,59,0.00,CLR,,0.00,WeatherDisplay:10.37,2014-09-16 17:29:00,
2014-09-16 12:30:00,57.6,43.4,30.16,SSW,192,3.7,6.9,59,0.00,CLR,,0.00,WeatherDisplay:10.37,2014-09-16 17:30:00,
2014-09-16 12:34:00,57.7,43.0,30.15,WSW,254,4.6,7.0,58,0.00,CLR,,0.00,WeatherDisplay:10.37,2014-09-16 17:34:00,
2014-09-16 12:35:00,57.8,43.1,30.15,WSW,250,4.8,10.4,58,0.00,CLR,,0.00,WeatherDisplay:10.37,2014-09-16 17:35:00,
2014-09-16 12:39:00,57.9,43.7,30.15,West,272,1.3,2.9,59,0.00,CLR,,0.00,WeatherDisplay:10.37,2014-09-16 17:39:00,
2014-09-16 12:40:00,57.9,43.7,30.15,NW,305,3.2,6.9,59,0.00,CLR,,0.00,WeatherDisplay:10.37,2014-09-16 17:40:00,
2014-09-16 12:44:00,58.1,43.8,30.15,NNW,330,4.1,6.9,59,0.00,CLR,,0.00,WeatherDisplay:10.37,2014-09-16 17:44:00,
2014-09-16 12:45:00,58.2,43.9,30.15,West,260,4.0,8.1,59,0.00,CLR,,0.00,WeatherDisplay:10.37,2014-09-16 17:45:00,
2014-09-16 12:49:00,58.5,43.8,30.15,West,280,2.7,6.9,58,0.00,CLR,,0.00,WeatherDisplay:10.37,2014-09-16 17:49:00,
2014-09-16 12:50:00,58.4,44.1,30.15,SW,227,1.7,4.0,59,0.00,CLR,,0.00,WeatherDisplay:10.37,2014-09-16 17:50:00,
2014-09-16 12:54:00,58.8,44.9,30.15,WSW,250,1.4,5.8,60,0.00,CLR,,0.00,WeatherDisplay:10.37,2014-09-16 17:54:00,
2014-09-16 12:55:00,58.8,44.9,30.15,SW,234,1.9,4.6,60,0.00,CLR,,0.00,WeatherDisplay:10.37,2014-09-16 17:55:00,
2014-09-16 12:59:00,59.0,44.7,30.15,WNW,302,2.9,6.5,59,0.00,CLR,,0.00,WeatherDisplay:10.37,2014-09-16 17:59:00,
2014-09-16 13:00:00,59.0,44.7,30.14,SW,232,3.4,6.9,59,0.00,CLR,,0.00,WeatherDisplay:10.37,2014-09-16 18:00:00,
2014-09-16 13:01:00,59.0,44.7,30.15,WSW,253,3.3,6.9,59,0.00,CLR,,0.00,WeatherDisplay:10.37,2014-09-16 18:01:00,
2014-09-16 13:04:00,59.2,45.3,30.14,WNW,287,2.5,3.5,60,0.00,CLR,,0.00,WeatherDisplay:10.37,2014-09-16 18:04:00,
2014-09-16 13:05:00,59.3,45.0,30.14,NW,304,3.0,5.8,59,0.00,CLR,,0.00,WeatherDisplay:10.37,2014-09-16 18:05:00,
2014-09-16 13:06:00,59.3,45.0,30.14,NNW,346,3.6,6.9,59,0.00,CLR,,0.00,WeatherDisplay:10.37,2014-09-16 18:06:00,
2014-09-16 13:09:00,59.4,44.2,30.14,SW,232,1.9,5.8,57,0.00,CLR,,0.00,WeatherDisplay:10.37,2014-09-16 18:09:00,
2014-09-16 13:10:00,59.5,44.2,30.14,SW,219,1.1,2.3,57,0.00,CLR,,0.00,WeatherDisplay:10.37,2014-09-16 18:10:00,
2014-09-16 13:11:00,59.5,44.7,30.14,SSE,162,0.7,2.3,58,0.00,CLR,,0.00,WeatherDisplay:10.37,2014-09-16 18:11:00,
2014-09-16 13:14:00,59.6,45.7,30.14,WSW,237,0.3,2.1,60,0.00,CLR,,0.00,WeatherDisplay:10.37,2014-09-16 18:14:00,
2014-09-16 13:15:00,59.7,45.8,30.14,WNW,284,1.3,2.3,60,0.00,CLR,,0.00,WeatherDisplay:10.37,2014-09-16 18:15:00,
2014-09-16 13:16:00,59.6,45.2,30.14,WSW,251,2.0,4.6,59,0.00,CLR,,0.00,WeatherDisplay:10.37,2014-09-16 18:16:00,
2014-09-16 13:19:00,59.8,45.0,30.14,North,350,1.7,4.6,58,0.00,CLR,,0.00,WeatherDisplay:10.37,2014-09-16 18:19:00,
2014-09-16 13:21:00,59.9,45.1,30.14,SSE,165,1.0,2.3,58,0.00,CLR,,0.00,WeatherDisplay:10.37,2014-09-16 18:21:00,
2014-09-16 13:25:00,60.0,45.6,30.14,SW,219,1.0,4.6,59,0.00,CLR,,0.00,WeatherDisplay:10.37,2014-09-16 18:25:00,
2014-09-16 13:26:00,60.1,45.7,30.14,SW,229,3.3,6.9,59,0.00,CLR,,0.00,WeatherDisplay:10.37,2014-09-16 18:26:00,
2014-09-16 13:30:00,60.4,45.1,30.14,WSW,248,4.3,6.9,57,0.00,CLR,,0.00,WeatherDisplay:10.37,2014-09-16 18:30:00,
2014-09-16 13:31:00,60.6,45.3,30.14,WNW,287,3.2,6.7,57,0.00,CLR,,0.00,WeatherDisplay:10.37,2014-09-16 18:31:00,
2014-09-16 13:35:00,61.0,45.2,30.14,SW,217,4.1,8.1,56,0.00,CLR,,0.00,WeatherDisplay:10.37,2014-09-16 18:35:00,
2014-09-16 13:36:00,61.3,45.9,30.14,SSW,193,4.3,8.1,57,0.00,CLR,,0.00,WeatherDisplay:10.37,2014-09-16 18:36:00,
2014-09-16 13:40:00,61.6,45.3,30.14,NW,318,3.9,6.9,55,0.00,CLR,,0.00,WeatherDisplay:10.37,2014-09-16 18:40:00,
2014-09-16 13:41:00,61.7,45.4,30.13,SW,220,2.8,4.6,55,0.00,CLR,,0.00,WeatherDisplay:10.37,2014-09-16 18:41:00,
2014-09-16 13:45:00,62.0,46.1,30.13,North,4,0.7,1.2,56,0.00,CLR,,0.00,WeatherDisplay:10.37,2014-09-16 18:45:00,
2014-09-16 13:46:00,62.3,46.9,30.13,SW,234,2.9,6.2,57,0.00,CLR,,0.00,WeatherDisplay:10.37,2014-09-16 18:46:00,
2014-09-16 13:48:00,62.5,46.6,30.13,NNW,332,0.1,4.6,56,0.00,CLR,,0.00,WeatherDisplay:10.37,2014-09-16 18:48:00,
2014-09-16 13:50:00,62.9,46.0,30.13,West,272,5.9,9.2,54,0.00,CLR,,0.00,WeatherDisplay:10.37,2014-09-16 18:50:00,
2014-09-16 13:52:00,63.1,45.7,30.13,WSW,243,5.1,8.1,53,0.00,CLR,,0.00,WeatherDisplay:10.37,2014-09-16 18:52:00,
2014-09-16 13:53:00,63.1,46.2,30.13,SW,236,2.4,4.7,54,0.00,CLR,,0.00,WeatherDisplay:10.37,2014-09-16 18:53:00,
2014-09-16 13:55:00,63.4,46.0,30.13,WSW,240,5.1,8.1,53,0.00,CLR,,0.00,WeatherDisplay:10.37,2014-09-16 18:55:00,
2014-09-16 13:57:00,63.4,46.0,30.13,West,268,4.5,8.1,53,0.00,CLR,,0.00,WeatherDisplay:10.37,2014-09-16 18:57:00,
2014-09-16 13:58:00,63.6,45.1,30.13,West,272,4.6,6.9,51,0.00,CLR,,0.00,WeatherDisplay:10.37,2014-09-16 18:58:00,
2014-09-16 14:01:00,64.0,46.0,30.13,SW,226,2.2,4.6,52,0.00,CLR,,0.00,WeatherDisplay:10.37,2014-09-16 19:01:00,
2014-09-16 14:02:00,63.8,45.8,30.13,West,265,3.6,6.1,52,0.00,CLR,,0.00,WeatherDisplay:10.37,2014-09-16 19:02:00,
2014-09-16 14:03:00,64.1,45.6,30.13,North,356,5.0,10.4,51,0.00,CLR,,0.00,WeatherDisplay:10.37,2014-09-16 19:03:00,
2014-09-16 14:06:00,64.1,45.6,30.12,WSW,258,3.4,6.9,51,0.00,CLR,,0.00,WeatherDisplay:10.37,2014-09-16 19:06:00,
2014-09-16 14:07:00,64.2,45.7,30.12,SW,234,2.5,6.9,51,0.00,CLR,,0.00,WeatherDisplay:10.37,2014-09-16 19:07:00,
2014-09-16 14:08:00,64.1,45.6,30.12,NW,318,2.0,4.6,51,0.00,CLR,,0.00,WeatherDisplay:10.37,2014-09-16 19:08:00,
2014-09-16 14:11:00,63.9,45.9,30.12,SSE,155,1.1,5.8,52,0.00,CLR,,0.00,WeatherDisplay:10.37,2014-09-16 19:11:00,
2014-09-16 14:12:00,63.7,45.7,30.12,WSW,256,0.2,5.8,52,0.00,CLR,,0.00,WeatherDisplay:10.37,2014-09-16 19:12:00,
2014-09-16 14:13:00,63.5,46.1,30.12,SSW,199,0.0,3.5,53,0.00,CLR,,0.00,WeatherDisplay:10.37,2014-09-16 19:13:00,
2014-09-16 14:16:00,63.3,46.4,30.12,WNW,295,2.5,4.6,54,0.00,CLR,,0.00,WeatherDisplay:10.37,2014-09-16 19:16:00,
2014-09-16 14:17:00,63.4,46.0,30.12,WNW,291,2.3,4.6,53,0.00,CLR,,0.00,WeatherDisplay:10.37,2014-09-16 19:17:00,
2014-09-16 14:18:00,63.4,46.0,30.12,WSW,241,5.3,7.1,53,0.00,CLR,,0.00,WeatherDisplay:10.37,2014-09-16 19:18:00,
2014-09-16 14:21:00,63.5,45.6,30.12,WNW,284,5.1,9.2,52,0.00,CLR,,0.00,WeatherDisplay:10.37,2014-09-16 19:21:00,
2014-09-16 14:22:00,63.6,45.6,30.12,West,267,3.7,6.9,52,0.00,CLR,,0.00,WeatherDisplay:10.37,2014-09-16 19:22:00,
2014-09-16 14:23:00,63.7,45.2,30.12,SW,223,4.6,8.1,51,0.00,CLR,,0.00,WeatherDisplay:10.37,2014-09-16 19:23:00,
2014-09-16 14:26:00,63.9,46.4,30.12,WSW,250,4.0,5.8,53,0.00,CLR,,0.00,WeatherDisplay:10.37,2014-09-16 19:26:00,
2014-09-16 14:27:00,64.0,46.0,30.12,WSW,247,3.8,5.8,52,0.00,CLR,,0.00,WeatherDisplay:10.37,2014-09-16 19:27:00,
2014-09-16 14:29:00,64.2,46.2,30.11,WSW,244,4.9,6.9,52,0.00,CLR,,0.00,WeatherDisplay:10.37,2014-09-16 19:29:00,
2014-09-16 14:31:00,64.7,47.2,30.11,SW,226,0.5,4.6,53,0.00,CLR,,0.00,WeatherDisplay:10.37,2014-09-16 19:31:00,
2014-09-16 14:32:00,64.7,46.7,30.11,SSW,202,2.0,4.6,52,0.00,CLR,,0.00,WeatherDisplay:10.37,2014-09-16 19:32:00,
2014-09-16 14:33:00,64.9,46.8,30.11,WSW,251,3.1,5.8,52,0.00,CLR,,0.00,WeatherDisplay:10.37,2014-09-16 19:33:00,
2014-09-16 14:34:00,65.0,45.9,30.11,SSW,202,5.4,8.1,50,0.00,CLR,,0.00,WeatherDisplay:10.37,2014-09-16 19:34:00,
2014-09-16 14:37:00,65.4,45.7,30.11,WSW,243,1.4,2.3,49,0.00,CLR,,0.00,WeatherDisplay:10.37,2014-09-16 19:37:00,
2014-09-16 14:38:00,65.6,45.4,30.11,North,349,2.8,4.6,48,0.00,CLR,,0.00,WeatherDisplay:10.37,2014-09-16 19:38:00,
2014-09-16 14:39:00,65.5,45.3,30.11,NW,311,2.4,4.6,48,0.00,CLR,,0.00,WeatherDisplay:10.37,2014-09-16 19:39:00,
2014-09-16 14:43:00,65.9,47.3,30.11,South,184,0.5,2.3,51,0.00,CLR,,0.00,WeatherDisplay:10.37,2014-09-16 19:43:00,
2014-09-16 14:44:00,66.0,46.8,30.11,WSW,258,1.2,2.3,50,0.00,CLR,,0.00,WeatherDisplay:10.37,2014-09-16 19:44:00,
2014-09-16 14:48:00,66.4,46.1,30.11,West,271,3.2,6.9,48,0.00,CLR,,0.00,WeatherDisplay:10.37,2014-09-16 19:48:00,
2014-09-16 14:49:00,66.5,46.2,30.11,West,274,2.4,6.9,48,0.00,CLR,,0.00,WeatherDisplay:10.37,2014-09-16 19:49:00,
2014-09-16 14:53:00,66.8,46.5,30.11,SW,216,4.8,8.1,48,0.00,CLR,,0.00,WeatherDisplay:10.37,2014-09-16 19:53:00,
2014-09-16 14:54:00,66.8,46.5,30.11,NW,308,1.4,4.6,48,0.00,CLR,,0.00,WeatherDisplay:10.37,2014-09-16 19:54:00,
2014-09-16 14:58:00,66.6,46.3,30.11,WNW,299,0.1,1.6,48,0.00,CLR,,0.00,WeatherDisplay:10.37,2014-09-16 19:58:00,
2014-09-16 14:59:00,66.6,46.3,30.11,WSW,256,1.7,2.5,48,0.00,CLR,,0.00,WeatherDisplay:10.37,2014-09-16 19:59:00,
2014-09-16 15:03:00,66.8,45.9,30.11,SW,226,3.5,6.9,47,0.00,CLR,,0.00,WeatherDisplay:10.37,2014-09-16 20:03:00,
2014-09-16 15:04:00,66.8,45.9,30.11,WSW,239,4.3,6.9,47,0.00,CLR,,0.00,WeatherDisplay:10.37,2014-09-16 20:04:00,
2014-09-16 15:08:00,67.1,46.2,30.11,WNW,282,4.1,8.1,47,0.00,CLR,,0.00,WeatherDisplay:10.37,2014-09-16 20:08:00,
2014-09-16 15:09:00,67.1,46.2,30.11,WSW,244,1.6,4.8,47,0.00,CLR,,0.00,WeatherDisplay:10.37,2014-09-16 20:09:00,
2014-09-16 15:11:00,67.2,45.7,30.10,SW,233,4.2,5.8,46,0.00,CLR,,0.00,WeatherDisplay:10.37,2014-09-16 20:11:00,
2014-09-16 15:13:00,67.2,45.7,30.11,NW,308,4.6,6.9,46,0.00,CLR,,0.00,WeatherDisplay:10.37,2014-09-16 20:13:00,
2014-09-16 15:14:00,67.2,45.7,30.11,South,191,1.5,6.9,46,0.00,CLR,,0.00,WeatherDisplay:10.37,2014-09-16 20:14:00,
2014-09-16 15:16:00,67.1,45.6,30.10,WSW,258,2.7,6.9,46,0.00,CLR,,0.00,WeatherDisplay:10.37,2014-09-16 20:16:00,
2014-09-16 15:18:00,66.8,45.3,30.11,NW,304,0.7,4.6,46,0.00,CLR,,0.00,WeatherDisplay:10.37,2014-09-16 20:18:00,
2014-09-16 15:19:00,66.8,44.8,30.10,West,278,0.9,2.3,45,0.00,CLR,,0.00,WeatherDisplay:10.37,2014-09-16 20:19:00,
2014-09-16 15:21:00,66.7,45.3,30.10,NW,306,0.9,5.7,46,0.00,CLR,,0.00,WeatherDisplay:10.37,2014-09-16 20:21:00,
2014-09-16 15:24:00,66.5,45.1,30.10,WNW,292,0.4,5.8,46,0.00,CLR,,0.00,WeatherDisplay:10.37,2014-09-16 20:24:00,
2014-09-16 15:26:00,66.5,45.1,30.10,NW,326,2.9,5.8,46,0.00,CLR,,0.00,WeatherDisplay:10.37,2014-09-16 20:26:00,
2014-09-16 15:29:00,66.4,45.5,30.10,WSW,240,0.3,3.1,47,0.00,CLR,,0.00,WeatherDisplay:10.37,2014-09-16 20:29:00,
2014-09-16 15:31:00,66.5,45.6,30.10,WNW,302,2.6,4.6,47,0.00,CLR,,0.00,WeatherDisplay:10.37,2014-09-16 20:31:00,
2014-09-16 15:34:00,66.4,45.0,30.10,NW,316,0.6,1.2,46,0.00,CLR,,0.00,WeatherDisplay:10.37,2014-09-16 20:34:00,
2014-09-16 15:36:00,66.4,46.1,30.09,West,261,1.1,4.2,48,0.00,CLR,,0.00,WeatherDisplay:10.37,2014-09-16 20:36:00,
2014-09-16 15:39:00,66.6,45.7,30.10,WSW,250,2.9,6.9,47,0.00,CLR,,0.00,WeatherDisplay:10.37,2014-09-16 20:39:00,
2014-09-16 15:41:00,66.8,45.3,30.10,WSW,251,2.3,5.8,46,0.00,CLR,,0.00,WeatherDisplay:10.37,2014-09-16 20:41:00,
2014-09-16 15:44:00,67.0,44.9,30.10,WSW,253,2.8,4.6,45,0.00,CLR,,0.00,WeatherDisplay:10.37,2014-09-16 20:44:00,
2014-09-16 15:46:00,67.1,45.0,30.10,SW,230,3.8,6.9,45,0.00,CLR,,0.00,WeatherDisplay:10.37,2014-09-16 20:46:00,
2014-09-16 15:49:00,67.3,45.2,30.09,West,278,1.3,3.5,45,0.00,CLR,,0.00,WeatherDisplay:10.37,2014-09-16 20:49:00,
2014-09-16 15:51:00,67.3,45.8,30.09,WSW,250,3.1,9.0,46,0.00,CLR,,0.00,WeatherDisplay:10.37,2014-09-16 20:51:00,
2014-09-16 15:54:00,67.4,45.3,30.09,WSW,239,1.1,3.5,45,0.00,CLR,,0.00,WeatherDisplay:10.37,2014-09-16 20:54:00,
2014-09-16 15:55:00,67.5,45.4,30.09,WSW,239,1.1,3.5,45,0.00,CLR,,0.00,WeatherDisplay:10.37,2014-09-16 20:55:00,
2014-09-16 15:56:00,67.7,46.2,30.09,WSW,247,1.8,3.5,46,0.00,CLR,,0.00,WeatherDisplay:10.37,2014-09-16 20:56:00,
2014-09-16 15:59:00,67.7,45.6,30.09,West,278,2.4,3.7,45,0.00,CLR,,0.00,WeatherDisplay:10.37,2014-09-16 20:59:00,
2014-09-16 16:00:00,67.4,45.3,30.09,West,274,2.4,3.5,45,0.00,CLR,,0.00,WeatherDisplay:10.37,2014-09-16 21:00:00,
2014-09-16 16:02:00,67.4,45.3,30.09,WSW,257,2.8,6.9,45,0.00,CLR,,0.00,WeatherDisplay:10.37,2014-09-16 21:02:00,
2014-09-16 16:05:00,67.7,45.6,30.09,SW,234,2.2,3.5,45,0.00,CLR,,0.00,WeatherDisplay:10.37,2014-09-16 21:05:00,
2014-09-16 16:07:00,67.6,44.9,30.09,West,260,2.7,9.8,44,0.00,CLR,,0.00,WeatherDisplay:10.37,2014-09-16 21:07:00,
2014-09-16 16:10:00,67.4,44.7,30.09,WNW,299,1.4,3.5,44,0.00,CLR,,0.00,WeatherDisplay:10.37,2014-09-16 21:10:00,
2014-09-16 16:12:00,67.4,45.3,30.09,SSW,198,2.0,3.5,45,0.00,CLR,,0.00,WeatherDisplay:10.37,2014-09-16 21:12:00,
2014-09-16 16:15:00,67.4,44.7,30.09,WSW,253,3.8,8.1,44,0.00,CLR,,0.00,WeatherDisplay:10.37,2014-09-16 21:15:00,
2014-09-16 16:17:00,67.7,45.0,30.09,SSW,205,0.0,2.3,44,0.00,CLR,,0.00,WeatherDisplay:10.37,2014-09-16 21:17:00,
2014-09-16 16:20:00,67.5,44.2,30.09,NNW,339,4.7,9.2,43,0.00,CLR,,0.00,WeatherDisplay:10.37,2014-09-16 21:20:00,
2014-09-16 16:22:00,67.4,44.7,30.09,North,4,1.1,3.5,44,0.00,CLR,,0.00,WeatherDisplay:10.37,2014-09-16 21:22:00,
2014-09-16 16:25:00,67.3,44.0,30.09,WNW,287,3.6,5.8,43,0.00,CLR,,0.00,WeatherDisplay:10.37,2014-09-16 21:25:00,
2014-09-16 16:27:00,67.3,44.6,30.09,West,264,0.9,4.6,44,0.00,CLR,,0.00,WeatherDisplay:10.37,2014-09-16 21:27:00,
2014-09-16 16:30:00,67.4,44.1,30.09,NW,306,3.1,5.8,43,0.00,CLR,,0.00,WeatherDisplay:10.37,2014-09-16 21:30:00,
2014-09-16 16:32:00,67.4,44.7,30.09,West,265,2.2,4.6,44,0.00,CLR,,0.00,WeatherDisplay:10.37,2014-09-16 21:32:00,
2014-09-16 16:35:00,67.4,44.1,30.09,ESE,107,1.4,4.6,43,0.00,CLR,,0.00,WeatherDisplay:10.37,2014-09-16 21:35:00,
2014-09-16 16:37:00,67.4,44.7,30.08,WSW,237,1.5,2.3,44,0.00,CLR,,0.00,WeatherDisplay:10.37,2014-09-16 21:37:00,
2014-09-16 16:40:00,67.3,44.6,30.08,West,267,2.0,9.4,44,0.00,CLR,,0.00,WeatherDisplay:10.37,2014-09-16 21:40:00,
2014-09-16 16:43:00,67.3,44.6,30.08,North,359,1.3,3.5,44,0.00,CLR,,0.00,WeatherDisplay:10.37,2014-09-16 21:43:00,
2014-09-16 16:45:00,67.3,44.6,30.08,WSW,240,3.4,4.6,44,0.00,CLR,,0.00,WeatherDisplay:10.37,2014-09-16 21:45:00,
2014-09-16 16:48:00,67.2,43.9,30.08,West,264,5.1,5.8,43,0.00,CLR,,0.00,WeatherDisplay:10.37,2014-09-16 21:48:00,
2014-09-16 16:50:00,67.0,43.8,30.08,West,268,2.9,5.8,43,0.00,CLR,,0.00,WeatherDisplay:10.37,2014-09-16 21:50:00,
2014-09-16 16:51:00,67.0,43.8,30.08,WSW,251,2.7,5.8,43,0.00,CLR,,0.00,WeatherDisplay:10.37,2014-09-16 21:51:00,
2014-09-16 16:53:00,66.8,43.6,30.08,West,267,3.9,8.1,43,0.00,CLR,,0.00,WeatherDisplay:10.37,2014-09-16 21:53:00,
2014-09-16 16:55:00,66.7,44.1,30.08,West,263,1.5,5.0,44,0.00,CLR,,0.00,WeatherDisplay:10.37,2014-09-16 21:55:00,
2014-09-16 16:56:00,66.6,44.0,30.08,West,260,3.0,4.6,44,0.00,CLR,,0.00,WeatherDisplay:10.37,2014-09-16 21:56:00,
2014-09-16 16:58:00,66.5,44.5,30.08,WSW,254,0.0,0.0,45,0.00,CLR,,0.00,WeatherDisplay:10.37,2014-09-16 21:58:00,
2014-09-16 17:00:00,66.4,43.8,30.08,WNW,285,4.4,7.1,44,0.00,CLR,,0.00,WeatherDisplay:10.37,2014-09-16 22:00:00,
2014-09-16 17:01:00,66.3,43.7,30.08,West,271,3.8,8.1,44,0.00,CLR,,0.00,WeatherDisplay:10.37,2014-09-16 22:01:00,
2014-09-16 17:03:00,66.1,43.5,30.08,WNW,299,2.0,3.5,44,0.00,CLR,,0.00,WeatherDisplay:10.37,2014-09-16 22:03:00,
2014-09-16 17:05:00,66.2,43.6,30.08,SW,227,2.6,4.6,44,0.00,CLR,,0.00,WeatherDisplay:10.37,2014-09-16 22:05:00,
2014-09-16 17:07:00,66.2,43.6,30.08,SW,234,0.4,2.3,44,0.00,CLR,,0.00,WeatherDisplay:10.37,2014-09-16 22:07:00,
2014-09-16 17:08:00,66.1,44.1,30.08,WSW,239,1.5,3.8,45,0.00,CLR,,0.00,WeatherDisplay:10.37,2014-09-16 22:08:00,
2014-09-16 17:10:00,65.9,43.9,30.08,WSW,251,3.3,5.8,45,0.00,CLR,,0.00,WeatherDisplay:10.37,2014-09-16 22:10:00,
2014-09-16 17:12:00,65.8,43.9,30.08,WSW,254,2.5,5.8,45,0.00,CLR,,0.00,WeatherDisplay:10.37,2014-09-16 22:12:00,
2014-09-16 17:15:00,65.7,44.3,30.08,West,274,1.2,2.3,46,0.00,CLR,,0.00,WeatherDisplay:10.37,2014-09-16 22:15:00,
2014-09-16 17:18:00,65.4,44.1,30.08,NNW,346,1.3,3.5,46,0.00,CLR,,0.00,WeatherDisplay:10.37,2014-09-16 22:18:00,
2014-09-16 17:20:00,65.1,44.4,30.07,NNW,346,0.0,0.0,47,0.00,CLR,,0.00,WeatherDisplay:10.37,2014-09-16 22:20:00,
2014-09-16 17:23:00,65.0,44.3,30.07,WSW,258,3.2,4.7,47,0.00,CLR,,0.00,WeatherDisplay:10.37,2014-09-16 22:23:00,
2014-09-16 17:25:00,64.9,44.2,30.07,SW,224,2.9,6.9,47,0.00,CLR,,0.00,WeatherDisplay:10.37,2014-09-16 22:25:00,
2014-09-16 17:26:00,64.8,44.1,30.07,West,264,3.1,6.9,47,0.00,CLR,,0.00,WeatherDisplay:10.37,2014-09-16 22:26:00,
2014-09-16 17:28:00,64.4,43.7,30.07,WSW,246,1.6,4.6,47,0.00,CLR,,0.00,WeatherDisplay:10.37,2014-09-16 22:28:00,
2014-09-16 17:30:00,64.1,44.0,30.07,SSW,200,0.7,2.0,48,0.00,CLR,,0.00,WeatherDisplay:10.37,2014-09-16 22:30:00,
2014-09-16 17:31:00,64.1,44.0,30.07,SW,230,1.9,1.9,48,0.00,CLR,,0.00,WeatherDisplay:10.37,2014-09-16 22:31:00,
2014-09-16 17:33:00,63.7,43.6,30.07,SW,219,2.6,3.5,48,0.00,CLR,,0.00,WeatherDisplay:10.37,2014-09-16 22:33:00,
2014-09-16 17:35:00,63.3,43.8,30.07,SW,232,1.9,3.5,49,0.00,CLR,,0.00,WeatherDisplay:10.37,2014-09-16 22:35:00,
2014-09-16 17:36:00,63.5,44.0,30.07,SSW,210,0.9,2.3,49,0.00,CLR,,0.00,WeatherDisplay:10.37,2014-09-16 22:36:00,
2014-09-16 17:38:00,63.0,44.1,30.07,SW,220,0.5,1.7,50,0.00,CLR,,0.00,WeatherDisplay:10.37,2014-09-16 22:38:00,
2014-09-16 17:40:00,62.8,43.9,30.07,South,184,1.1,3.5,50,0.00,CLR,,0.00,WeatherDisplay:10.37,2014-09-16 22:40:00,
2014-09-16 17:41:00,62.8,43.9,30.07,WSW,247,0.7,2.3,50,0.00,CLR,,0.00,WeatherDisplay:10.37,2014-09-16 22:41:00,
2014-09-16 17:44:00,62.4,43.5,30.07,WSW,247,0.0,0.0,50,0.00,CLR,,0.00,WeatherDisplay:10.37,2014-09-16 22:44:00,
2014-09-16 17:45:00,62.4,44.0,30.07,NNW,339,1.0,2.2,51,0.00,CLR,,0.00,WeatherDisplay:10.37,2014-09-16 22:45:00,
2014-09-16 17:46:00,62.3,43.9,30.07,SW,233,3.2,5.8,51,0.00,CLR,,0.00,WeatherDisplay:10.37,2014-09-16 22:46:00,
2014-09-16 17:49:00,61.9,43.6,30.07,West,271,0.8,2.3,51,0.00,CLR,,0.00,WeatherDisplay:10.37,2014-09-16 22:49:00,
2014-09-16 17:50:00,61.8,44.0,30.07,West,271,0.0,2.3,52,0.00,CLR,,0.00,WeatherDisplay:10.37,2014-09-16 22:50:00,
2014-09-16 17:51:00,61.8,44.0,30.06,West,263,0.1,1.0,52,0.00,CLR,,0.00,WeatherDisplay:10.37,2014-09-16 22:51:00,
2014-09-16 17:54:00,61.5,43.7,30.06,WNW,285,1.3,4.6,52,0.00,CLR,,0.00,WeatherDisplay:10.37,2014-09-16 22:54:00,
2014-09-16 17:55:00,61.4,43.6,30.06,WNW,285,0.0,1.2,52,0.00,CLR,,0.00,WeatherDisplay:10.37,2014-09-16 22:55:00,
2014-09-16 17:56:00,61.3,43.5,30.06,WNW,285,0.0,0.0,52,0.00,CLR,,0.00,WeatherDisplay:10.37,2014-09-16 22:56:00,
2014-09-16 17:57:00,61.3,43.5,30.06,WNW,285,0.0,0.0,52,0.00,CLR,,0.00,WeatherDisplay:10.37,2014-09-16 22:57:00,
2014-09-16 17:59:00,61.1,43.8,30.06,WNW,285,0.2,1.2,53,0.00,CLR,,0.00,WeatherDisplay:10.37,2014-09-16 22:59:00,
2014-09-16 18:00:00,60.9,43.6,30.06,WNW,285,0.0,1.2,53,0.00,CLR,,0.00,WeatherDisplay:10.37,2014-09-16 23:00:00,
2014-09-16 18:01:00,60.8,43.6,30.06,WNW,285,0.0,0.0,53,0.00,CLR,,0.00,WeatherDisplay:10.37,2014-09-16 23:01:00,
2014-09-16 18:02:00,60.8,43.6,30.06,WNW,285,0.0,0.0,53,0.00,CLR,,0.00,WeatherDisplay:10.37,2014-09-16 23:02:00,
2014-09-16 18:05:00,60.6,43.9,30.07,NW,313,0.2,2.5,54,0.00,CLR,,0.00,WeatherDisplay:10.37,2014-09-16 23:05:00,
2014-09-16 18:06:00,60.5,43.8,30.07,WNW,287,0.6,0.0,54,0.00,CLR,,0.00,WeatherDisplay:10.37,2014-09-16 23:06:00,
2014-09-16 18:07:00,60.5,43.8,30.06,WNW,287,0.0,0.0,54,0.00,CLR,,0.00,WeatherDisplay:10.37,2014-09-16 23:07:00,
2014-09-16 18:10:00,60.2,43.5,30.06,WSW,243,1.6,3.5,54,0.00,CLR,,0.00,WeatherDisplay:10.37,2014-09-16 23:10:00,
2014-09-16 18:11:00,60.1,43.4,30.06,WSW,243,0.5,3.5,54,0.00,CLR,,0.00,WeatherDisplay:10.37,2014-09-16 23:11:00,
2014-09-16 18:12:00,59.9,43.7,30.06,WSW,243,0.0,0.0,55,0.00,CLR,,0.00,WeatherDisplay:10.37,2014-09-16 23:12:00,
2014-09-16 18:15:00,59.7,43.5,30.06,WSW,243,0.0,0.0,55,0.00,CLR,,0.00,WeatherDisplay:10.37,2014-09-16 23:15:00,
2014-09-16 18:16:00,59.7,43.5,30.06,WSW,243,0.0,0.0,55,0.00,CLR,,0.00,WeatherDisplay:10.37,2014-09-16 23:16:00,
2014-09-16 18:17:00,59.7,44.0,30.06,WSW,243,0.0,0.0,56,0.00,CLR,,0.00,WeatherDisplay:10.37,2014-09-16 23:17:00,
2014-09-16 18:18:00,59.6,43.9,30.06,WSW,243,0.0,0.0,56,0.00,CLR,,0.00,WeatherDisplay:10.37,2014-09-16 23:18:00,
2014-09-16 18:20:00,59.4,43.7,30.06,WSW,243,0.0,0.0,56,0.00,CLR,,0.00,WeatherDisplay:10.37,2014-09-16 23:20:00,
2014-09-16 18:21:00,59.5,44.2,30.06,WSW,243,0.0,0.0,57,0.00,CLR,,0.00,WeatherDisplay:10.37,2014-09-16 23:21:00,
2014-09-16 18:22:00,59.5,44.2,30.06,WSW,243,0.0,0.0,57,0.00,CLR,,0.00,WeatherDisplay:10.37,2014-09-16 23:22:00,
2014-09-16 18:23:00,59.5,44.2,30.06,WSW,243,0.0,0.0,57,0.00,CLR,,0.00,WeatherDisplay:10.37,2014-09-16 23:23:00,
2014-09-16 18:25:00,59.2,44.4,30.06,WSW,243,0.0,0.0,58,0.00,CLR,,0.00,WeatherDisplay:10.37,2014-09-16 23:25:00,
2014-09-16 18:26:00,59.2,44.4,30.06,WSW,243,0.0,0.0,58,0.00,CLR,,0.00,WeatherDisplay:10.37,2014-09-16 23:26:00,
2014-09-16 18:27:00,59.1,44.3,30.06,WSW,243,0.0,0.0,58,0.00,CLR,,0.00,WeatherDisplay:10.37,2014-09-16 23:27:00,
2014-09-16 18:28:00,59.1,44.3,30.06,WSW,243,0.0,0.0,58,0.00,CLR,,0.00,WeatherDisplay:10.37,2014-09-16 23:28:00,
2014-09-16 18:31:00,58.9,44.6,30.06,WSW,243,0.0,0.0,59,0.00,CLR,,0.00,WeatherDisplay:10.37,2014-09-16 23:31:00,
2014-09-16 18:32:00,58.8,44.5,30.06,WSW,243,0.0,0.0,59,0.00,CLR,,0.00,WeatherDisplay:10.37,2014-09-16 23:32:00,
2014-09-16 18:33:00,58.7,44.8,30.06,WSW,243,0.0,0.0,60,0.00,CLR,,0.00,WeatherDisplay:10.37,2014-09-16 23:33:00,
2014-09-16 18:36:00,58.4,44.6,30.06,WSW,243,0.0,0.0,60,0.00,CLR,,0.00,WeatherDisplay:10.37,2014-09-16 23:36:00,
2014-09-16 18:37:00,58.3,44.9,30.06,WSW,243,0.0,0.0,61,0.00,CLR,,0.00,WeatherDisplay:10.37,2014-09-16 23:37:00,
2014-09-16 18:38:00,58.2,44.8,30.06,WSW,243,0.0,0.0,61,0.00,CLR,,0.00,WeatherDisplay:10.37,2014-09-16 23:38:00,
2014-09-16 18:41:00,57.9,45.0,30.06,WSW,243,0.0,0.0,62,0.00,CLR,,0.00,WeatherDisplay:10.37,2014-09-16 23:41:00,
2014-09-16 18:42:00,57.8,44.9,30.06,WSW,243,0.0,0.0,62,0.00,CLR,,0.00,WeatherDisplay:10.37,2014-09-16 23:42:00,
2014-09-16 18:43:00,57.7,44.8,30.06,WSW,243,0.0,0.0,62,0.00,CLR,,0.00,WeatherDisplay:10.37,2014-09-16 23:43:00,
2014-09-16 18:46:00,57.4,44.9,30.06,WSW,243,0.0,0.0,63,0.00,CLR,,0.00,WeatherDisplay:10.37,2014-09-16 23:46:00,
2014-09-16 18:47:00,57.2,45.1,30.06,WSW,243,0.0,0.0,64,0.00,CLR,,0.00,WeatherDisplay:10.37,2014-09-16 23:47:00,
2014-09-16 18:48:00,57.1,45.0,30.06,WSW,243,0.0,0.0,64,0.00,CLR,,0.00,WeatherDisplay:10.37,2014-09-16 23:48:00,
2014-09-16 18:51:00,56.9,44.8,30.06,WSW,243,0.0,0.0,64,0.00,CLR,,0.00,WeatherDisplay:10.37,2014-09-16 23:51:00,
2014-09-16 18:52:00,56.8,45.2,30.06,WSW,243,0.0,0.0,65,0.00,CLR,,0.00,WeatherDisplay:10.37,2014-09-16 23:52:00,
2014-09-16 18:53:00,56.7,45.1,30.06,WSW,243,0.0,0.0,65,0.00,CLR,,0.00,WeatherDisplay:10.37,2014-09-16 23:53:00,
2014-09-16 18:56:00,56.3,45.1,30.06,WSW,243,0.0,0.0,66,0.00,CLR,,0.00,WeatherDisplay:10.37,2014-09-16 23:56:00,
2014-09-16 18:57:00,56.1,44.9,30.06,WSW,243,0.0,0.0,66,0.00,CLR,,0.00,WeatherDisplay:10.37,2014-09-16 23:57:00,
2014-09-16 18:58:00,56.1,44.9,30.06,WSW,243,0.0,0.0,66,0.00,CLR,,0.00,WeatherDisplay:10.37,2014-09-16 23:58:00,
2014-09-16 19:01:00,55.7,44.5,30.06,WSW,243,0.0,0.0,66,0.00,CLR,,0.00,WeatherDisplay:10.37,2014-09-17 00:01:00,
2014-09-16 19:02:00,55.7,44.9,30.06,WSW,243,0.0,0.0,67,0.00,CLR,,0.00,WeatherDisplay:10.37,2014-09-17 00:02:00,
2014-09-16 19:03:00,55.5,44.7,30.06,WSW,243,0.0,0.0,67,0.00,CLR,,0.00,WeatherDisplay:10.37,2014-09-17 00:03:00,
2014-09-16 19:04:00,55.5,45.1,30.06,WSW,243,0.0,0.0,68,0.00,CLR,,0.00,WeatherDisplay:10.37,2014-09-17 00:04:00,
2014-09-16 19:06:00,55.2,44.8,30.06,WSW,243,0.0,0.0,68,0.00,CLR,,0.00,WeatherDisplay:10.37,2014-09-17 00:06:00,
2014-09-16 19:07:00,55.1,45.1,30.06,WSW,243,0.0,0.0,69,0.00,CLR,,0.00,WeatherDisplay:10.37,2014-09-17 00:07:00,
2014-09-16 19:08:00,55.1,45.1,30.06,WSW,243,0.0,0.0,69,0.00,CLR,,0.00,WeatherDisplay:10.37,2014-09-17 00:08:00,
2014-09-16 19:09:00,54.9,44.9,30.06,WSW,243,0.0,0.0,69,0.00,CLR,,0.00,WeatherDisplay:10.37,2014-09-17 00:09:00,
2014-09-16 19:12:00,54.6,44.6,30.06,WSW,243,0.0,0.0,69,0.00,CLR,,0.00,WeatherDisplay:10.37,2014-09-17 00:12:00,
2014-09-16 19:13:00,54.5,44.5,30.06,WSW,243,0.0,0.0,69,0.00,CLR,,0.00,WeatherDisplay:10.37,2014-09-17 00:13:00,
2014-09-16 19:14:00,54.5,44.5,30.06,WSW,243,0.0,0.0,69,0.00,CLR,,0.00,WeatherDisplay:10.37,2014-09-17 00:14:00,
2014-09-16 19:17:00,54.1,44.5,30.06,WSW,243,0.0,0.0,70,0.00,CLR,,0.00,WeatherDisplay:10.37,2014-09-17 00:17:00,
2014-09-16 19:18:00,54.0,44.4,30.06,WSW,243,0.0,0.0,70,0.00,CLR,,0.00,WeatherDisplay:10.37,2014-09-17 00:18:00,
2014-09-16 19:19:00,53.9,44.3,30.06,WSW,243,0.0,0.0,70,0.00,CLR,,0.00,WeatherDisplay:10.37,2014-09-17 00:19:00,
2014-09-16 19:22:00,53.6,44.4,30.06,WSW,243,0.0,0.0,71,0.00,CLR,,0.00,WeatherDisplay:10.37,2014-09-17 00:22:00,
2014-09-16 19:23:00,53.5,44.3,30.06,WSW,243,0.0,0.0,71,0.00,CLR,,0.00,WeatherDisplay:10.37,2014-09-17 00:23:00,
2014-09-16 19:24:00,53.5,44.3,30.06,WSW,243,0.0,0.0,71,0.00,CLR,,0.00,WeatherDisplay:10.37,2014-09-17 00:24:00,
2014-09-16 19:27:00,53.1,44.3,30.06,WSW,243,0.0,0.0,72,0.00,CLR,,0.00,WeatherDisplay:10.37,2014-09-17 00:27:00,
2014-09-16 19:28:00,53.1,44.3,30.06,WSW,243,0.0,0.0,72,0.00,CLR,,0.00,WeatherDisplay:10.37,2014-09-17 00:28:00,
2014-09-16 19:29:00,52.9,44.5,30.06,WSW,243,0.0,0.0,73,0.00,CLR,,0.00,WeatherDisplay:10.37,2014-09-17 00:29:00,
2014-09-16 19:33:00,52.8,44.4,30.06,WSW,243,0.0,0.0,73,0.00,CLR,,0.00,WeatherDisplay:10.37,2014-09-17 00:33:00,
2014-09-16 19:34:00,52.6,44.2,30.06,WSW,243,0.0,0.0,73,0.00,CLR,,0.00,WeatherDisplay:10.37,2014-09-17 00:34:00,
2014-09-16 19:38:00,52.3,43.9,30.06,WSW,243,0.0,0.0,73,0.00,CLR,,0.00,WeatherDisplay:10.37,2014-09-17 00:38:00,
2014-09-16 19:39:00,52.1,43.7,30.06,WSW,243,0.0,0.0,73,0.00,CLR,,0.00,WeatherDisplay:10.37,2014-09-17 00:39:00,